Observation data for Sweetwater on 08/15/2019      Previous  Date  Next       Current Mesonet Observations  Soil Data  Daily Summary Page  Observations in Plain Language
KSW1 150500Z 10011KT 28/20 A3012 RMK A01 T02770197  RH  062%=      5-min Rain = 0
KSW1 150501Z 10010KT 28/20 A3013 RMK A01 T02770197  RH  062%=      5-min Rain = 0
KSW1 150502Z 10010KT 28/20 A3013 RMK A01 T02770197  RH  062%=      5-min Rain = 0
KSW1 150503Z 10011KT 28/20 A3013 RMK A01 T02770197  RH  062%=      5-min Rain = 0
KSW1 150504Z 10010KT 28/20 A3013 RMK A01 T02770197  RH  062%=      5-min Rain = 0
KSW1 150505Z 10012KT 28/20 A3013 RMK A01 T02770197  RH  062%=      5-min Rain = 0
KSW1 150506Z 10012KT 28/20 A3013 RMK A01 T02770197  RH  062%=      5-min Rain = 0
KSW1 150507Z 11012KT 28/20 A3013 RMK A01 T02770197  RH  062%=      5-min Rain = 0
KSW1 150508Z 10010KT 28/20 A3013 RMK A01 T02770197  RH  062%=      5-min Rain = 0
KSW1 150509Z 10010KT 28/20 A3013 RMK A01 T02770197  RH  062%=      5-min Rain = 0
KSW1 150510Z 10009KT 28/20 A3013 RMK A01 T02770197  RH  062%=      5-min Rain = 0
KSW1 150511Z 10008KT 28/20 A3013 RMK A01 T02760197  RH  062%=      5-min Rain = 0
KSW1 150512Z 10008KT 28/20 A3013 RMK A01 T02760197  RH  062%=      5-min Rain = 0
KSW1 150513Z 10009KT 28/20 A3013 RMK A01 T02750197  RH  062%=      5-min Rain = 0
KSW1 150514Z 10008KT 28/20 A3013 RMK A01 T02750197  RH  062%=      5-min Rain = 0
KSW1 150515Z 10009KT 28/20 A3013 RMK A01 T02750197  RH  063%=      5-min Rain = 0
KSW1 150516Z 10009KT 28/20 A3013 RMK A01 T02750197  RH  063%=      5-min Rain = 0
KSW1 150517Z 10009KT 28/20 A3013 RMK A01 T02750197  RH  063%=      5-min Rain = 0
KSW1 150518Z 10008KT 28/20 A3013 RMK A01 T02750197  RH  063%=      5-min Rain = 0
KSW1 150519Z 10010KT 27/20 A3013 RMK A01 T02740197  RH  063%=      5-min Rain = 0
KSW1 150520Z 10009KT 27/20 A3013 RMK A01 T02740198  RH  063%=      5-min Rain = 0
KSW1 150521Z 10010KT 27/20 A3014 RMK A01 T02740197  RH  063%=      5-min Rain = 0
KSW1 150522Z 10010KT 27/20 A3014 RMK A01 T02740197  RH  063%=      5-min Rain = 0
KSW1 150523Z 10009KT 27/20 A3014 RMK A01 T02740197  RH  063%=      5-min Rain = 0
KSW1 150524Z 10010KT 27/20 A3014 RMK A01 T02740197  RH  063%=      5-min Rain = 0
KSW1 150525Z 10008KT 27/20 A3014 RMK A01 T02740197  RH  063%=      5-min Rain = 0
KSW1 150526Z 10009KT 27/20 A3014 RMK A01 T02730197  RH  063%=      5-min Rain = 0
KSW1 150527Z 10011KT 27/20 A3014 RMK A01 T02730197  RH  063%=      5-min Rain = 0
KSW1 150528Z 10011KT 27/20 A3014 RMK A01 T02730197  RH  063%=      5-min Rain = 0
KSW1 150529Z 10011KT 27/20 A3014 RMK A01 T02740197  RH  063%=      5-min Rain = 0
KSW1 150530Z 10012KT 27/20 A3014 RMK A01 T02740197  RH  063%=      5-min Rain = 0
KSW1 150531Z 10010KT 27/20 A3014 RMK A01 T02740198  RH  063%=      5-min Rain = 0
KSW1 150532Z 10010KT 27/20 A3014 RMK A01 T02740198  RH  063%=      5-min Rain = 0
KSW1 150533Z 10010KT 27/20 A3014 RMK A01 T02740198  RH  063%=      5-min Rain = 0
KSW1 150534Z 10009KT 27/20 A3014 RMK A01 T02740198  RH  063%=      5-min Rain = 0
KSW1 150535Z 10010KT 27/20 A3014 RMK A01 T02730198  RH  063%=      5-min Rain = 0
KSW1 150536Z 10010KT 27/20 A3014 RMK A01 T02730198  RH  063%=      5-min Rain = 0
KSW1 150537Z 10009KT 27/20 A3014 RMK A01 T02730198  RH  063%=      5-min Rain = 0
KSW1 150538Z 10009KT 27/20 A3014 RMK A01 T02730198  RH  064%=      5-min Rain = 0
KSW1 150539Z 10009KT 27/20 A3014 RMK A01 T02720198  RH  064%=      5-min Rain = 0
KSW1 150540Z 10009KT 27/20 A3014 RMK A01 T02720198  RH  064%=      5-min Rain = 0
KSW1 150541Z 10009KT 27/20 A3014 RMK A01 T02720197  RH  064%=      5-min Rain = 0
KSW1 150542Z 10008KT 27/20 A3014 RMK A01 T02710197  RH  064%=      5-min Rain = 0
KSW1 150543Z 10008KT 27/20 A3014 RMK A01 T02720198  RH  064%=      5-min Rain = 0
KSW1 150544Z 10007KT 27/20 A3014 RMK A01 T02710197  RH  064%=      5-min Rain = 0
KSW1 150545Z 10007KT 27/20 A3014 RMK A01 T02710197  RH  064%=      5-min Rain = 0
KSW1 150546Z 10008KT 27/20 A3014 RMK A01 T02700197  RH  064%=      5-min Rain = 0
KSW1 150547Z 10008KT 27/20 A3014 RMK A01 T02710197  RH  064%=      5-min Rain = 0
KSW1 150548Z 10008KT 27/20 A3014 RMK A01 T02710197  RH  064%=      5-min Rain = 0
KSW1 150549Z 11007KT 27/20 A3014 RMK A01 T02700197  RH  064%=      5-min Rain = 0
KSW1 150550Z 11007KT 27/20 A3014 RMK A01 T02700197  RH  064%=      5-min Rain = 0
KSW1 150551Z 11007KT 27/20 A3014 RMK A01 T02700197  RH  064%=      5-min Rain = 0
KSW1 150552Z 11008KT 27/20 A3014 RMK A01 T02690197  RH  064%=      5-min Rain = 0
KSW1 150553Z 11007KT 27/20 A3014 RMK A01 T02690197  RH  064%=      5-min Rain = 0
KSW1 150554Z 11006KT 27/20 A3014 RMK A01 T02690197  RH  065%=      5-min Rain = 0
KSW1 150555Z 11006KT 27/20 A3014 RMK A01 T02690196  RH  065%=      5-min Rain = 0
KSW1 150556Z 11007KT 27/20 A3014 RMK A01 T02690197  RH  065%=      5-min Rain = 0
KSW1 150557Z 11007KT 27/20 A3014 RMK A01 T02680197  RH  065%=      5-min Rain = 0
KSW1 150558Z 11007KT 27/20 A3014 RMK A01 T02680197  RH  065%=      5-min Rain = 0
KSW1 150559Z 12008KT 27/20 A3014 RMK A01 T02680197  RH  065%=      5-min Rain = 0
KSW1 150600Z 12008KT 27/20 A3014 RMK A01 T02680197  RH  065%=      5-min Rain = 0
KSW1 150601Z 12007KT 27/20 A3014 RMK A01 T02680196  RH  065%=      5-min Rain = 0
KSW1 150602Z 12008KT 27/20 A3014 RMK A01 T02680196  RH  065%=      5-min Rain = 0
KSW1 150603Z 12009KT 27/20 A3014 RMK A01 T02680196  RH  065%=      5-min Rain = 0
KSW1 150604Z 12009KT 27/20 A3014 RMK A01 T02680196  RH  065%=      5-min Rain = 0
KSW1 150605Z 12009KT 27/20 A3014 RMK A01 T02680196  RH  065%=      5-min Rain = 0
KSW1 150606Z 12010KT 27/20 A3014 RMK A01 T02680196  RH  065%=      5-min Rain = 0
KSW1 150607Z 12009KT 27/20 A3014 RMK A01 T02690196  RH  065%=      5-min Rain = 0
KSW1 150608Z 13009KT 27/20 A3014 RMK A01 T02680196  RH  065%=      5-min Rain = 0
KSW1 150609Z 12009KT 27/20 A3014 RMK A01 T02680196  RH  065%=      5-min Rain = 0
KSW1 150610Z 12009KT 27/20 A3014 RMK A01 T02680196  RH  065%=      5-min Rain = 0
KSW1 150611Z 12008KT 27/20 A3014 RMK A01 T02680196  RH  065%=      5-min Rain = 0
KSW1 150612Z 12008KT 27/20 A3014 RMK A01 T02680196  RH  065%=      5-min Rain = 0
KSW1 150613Z 12008KT 27/20 A3014 RMK A01 T02680196  RH  065%=      5-min Rain = 0
KSW1 150614Z 13007KT 27/20 A3014 RMK A01 T02670196  RH  065%=      5-min Rain = 0
KSW1 150615Z 12008KT 27/20 A3014 RMK A01 T02670196  RH  065%=      5-min Rain = 0
KSW1 150616Z 12008KT 27/20 A3014 RMK A01 T02670195  RH  065%=      5-min Rain = 0
KSW1 150617Z 13008KT 27/20 A3014 RMK A01 T02670195  RH  065%=      5-min Rain = 0
KSW1 150618Z 12008KT 27/20 A3014 RMK A01 T02670195  RH  065%=      5-min Rain = 0
KSW1 150619Z 12007KT 27/20 A3014 RMK A01 T02670195  RH  065%=      5-min Rain = 0
KSW1 150620Z 12007KT 27/20 A3014 RMK A01 T02670195  RH  065%=      5-min Rain = 0
KSW1 150621Z 12009KT 27/20 A3014 RMK A01 T02660195  RH  065%=      5-min Rain = 0
KSW1 150622Z 12008KT 27/20 A3014 RMK A01 T02660195  RH  065%=      5-min Rain = 0
KSW1 150623Z 12009KT 27/19 A3014 RMK A01 T02660194  RH  065%=      5-min Rain = 0
KSW1 150624Z 12008KT 27/19 A3014 RMK A01 T02660194  RH  065%=      5-min Rain = 0
KSW1 150625Z 12008KT 27/19 A3014 RMK A01 T02660194  RH  064%=      5-min Rain = 0
KSW1 150626Z 12007KT 27/19 A3014 RMK A01 T02670194  RH  064%=      5-min Rain = 0
KSW1 150627Z 12008KT 27/19 A3014 RMK A01 T02660194  RH  064%=      5-min Rain = 0
KSW1 150628Z 12007KT 27/19 A3014 RMK A01 T02660193  RH  064%=      5-min Rain = 0
KSW1 150629Z 12008KT 27/19 A3014 RMK A01 T02660194  RH  064%=      5-min Rain = 0
KSW1 150630Z 12009KT 27/19 A3014 RMK A01 T02660193  RH  064%=      5-min Rain = 0
KSW1 150631Z 12009KT 27/19 A3014 RMK A01 T02660193  RH  064%=      5-min Rain = 0
KSW1 150632Z 12008KT 27/19 A3014 RMK A01 T02660193  RH  064%=      5-min Rain = 0
KSW1 150633Z 12008KT 27/19 A3014 RMK A01 T02670193  RH  064%=      5-min Rain = 0
KSW1 150634Z 13008KT 27/19 A3014 RMK A01 T02660193  RH  064%=      5-min Rain = 0
KSW1 150635Z 12008KT 27/19 A3014 RMK A01 T02660193  RH  064%=      5-min Rain = 0
KSW1 150636Z 12008KT 27/19 A3014 RMK A01 T02660193  RH  064%=      5-min Rain = 0
KSW1 150637Z 12008KT 27/19 A3014 RMK A01 T02660193  RH  064%=      5-min Rain = 0
KSW1 150638Z 12007KT 27/19 A3014 RMK A01 T02660193  RH  064%=      5-min Rain = 0
KSW1 150639Z 13007KT 27/19 A3014 RMK A01 T02650192  RH  064%=      5-min Rain = 0
KSW1 150640Z 12008KT 27/19 A3014 RMK A01 T02660193  RH  064%=      5-min Rain = 0
KSW1 150641Z 12008KT 27/19 A3014 RMK A01 T02660193  RH  064%=      5-min Rain = 0
KSW1 150642Z 12007KT 27/19 A3014 RMK A01 T02650192  RH  064%=      5-min Rain = 0
KSW1 150643Z 12008KT 27/19 A3014 RMK A01 T02650192  RH  064%=      5-min Rain = 0
KSW1 150644Z 12007KT 26/19 A3014 RMK A01 T02640192  RH  065%=      5-min Rain = 0
KSW1 150645Z 12008KT 26/19 A3014 RMK A01 T02640192  RH  065%=      5-min Rain = 0
KSW1 150646Z 12008KT 26/19 A3014 RMK A01 T02640193  RH  065%=      5-min Rain = 0
KSW1 150647Z 12008KT 26/19 A3014 RMK A01 T02640193  RH  065%=      5-min Rain = 0
KSW1 150648Z 12008KT 26/19 A3014 RMK A01 T02640193  RH  065%=      5-min Rain = 0
KSW1 150649Z 12008KT 26/19 A3014 RMK A01 T02630193  RH  065%=      5-min Rain = 0
KSW1 150650Z 12008KT 26/19 A3014 RMK A01 T02630193  RH  065%=      5-min Rain = 0
KSW1 150651Z 12008KT 26/19 A3014 RMK A01 T02630192  RH  065%=      5-min Rain = 0
KSW1 150652Z 12008KT 26/19 A3014 RMK A01 T02620192  RH  065%=      5-min Rain = 0
KSW1 150653Z 12008KT 26/19 A3014 RMK A01 T02620192  RH  065%=      5-min Rain = 0
KSW1 150654Z 12009KT 26/19 A3014 RMK A01 T02630193  RH  066%=      5-min Rain = 0
KSW1 150655Z 12008KT 26/19 A3014 RMK A01 T02620192  RH  065%=      5-min Rain = 0
KSW1 150656Z 12008KT 26/19 A3014 RMK A01 T02620193  RH  065%=      5-min Rain = 0
KSW1 150657Z 12008KT 26/19 A3014 RMK A01 T02620193  RH  066%=      5-min Rain = 0
KSW1 150658Z 12008KT 26/19 A3014 RMK A01 T02620193  RH  066%=      5-min Rain = 0
KSW1 150659Z 12008KT 26/19 A3014 RMK A01 T02620193  RH  066%=      5-min Rain = 0
KSW1 150700Z 12008KT 26/19 A3014 RMK A01 T02620193  RH  066%=      5-min Rain = 0
KSW1 150701Z 12008KT 26/19 A3014 RMK A01 T02620193  RH  066%=      5-min Rain = 0
KSW1 150702Z 12008KT 26/19 A3014 RMK A01 T02620193  RH  066%=      5-min Rain = 0
KSW1 150703Z 12007KT 26/19 A3014 RMK A01 T02620193  RH  066%=      5-min Rain = 0
KSW1 150704Z 12007KT 26/19 A3014 RMK A01 T02630193  RH  066%=      5-min Rain = 0
KSW1 150705Z 12008KT 26/19 A3014 RMK A01 T02620193  RH  066%=      5-min Rain = 0
KSW1 150706Z 12008KT 26/19 A3014 RMK A01 T02620194  RH  066%=      5-min Rain = 0
KSW1 150707Z 12008KT 26/19 A3014 RMK A01 T02620194  RH  066%=      5-min Rain = 0
KSW1 150708Z 12009KT 26/19 A3014 RMK A01 T02620194  RH  066%=      5-min Rain = 0
KSW1 150709Z 12009KT 26/19 A3014 RMK A01 T02620194  RH  066%=      5-min Rain = 0
KSW1 150710Z 12009KT 26/20 A3014 RMK A01 T02630195  RH  066%=      5-min Rain = 0
KSW1 150711Z 12009KT 26/19 A3014 RMK A01 T02630194  RH  066%=      5-min Rain = 0
KSW1 150712Z 12008KT 26/20 A3014 RMK A01 T02630195  RH  066%=      5-min Rain = 0
KSW1 150713Z 12008KT 26/20 A3014 RMK A01 T02630195  RH  066%=      5-min Rain = 0
KSW1 150714Z 12009KT 26/20 A3014 RMK A01 T02620195  RH  066%=      5-min Rain = 0
KSW1 150715Z 12009KT 26/20 A3014 RMK A01 T02620195  RH  067%=      5-min Rain = 0
KSW1 150716Z 12009KT 26/20 A3014 RMK A01 T02620195  RH  067%=      5-min Rain = 0
KSW1 150717Z 12010KT 26/20 A3013 RMK A01 T02620195  RH  067%=      5-min Rain = 0
KSW1 150718Z 12009KT 26/20 A3013 RMK A01 T02610195  RH  067%=      5-min Rain = 0
KSW1 150719Z 12010KT 26/20 A3013 RMK A01 T02620196  RH  067%=      5-min Rain = 0
KSW1 150720Z 12009KT 26/20 A3013 RMK A01 T02610195  RH  067%=      5-min Rain = 0
KSW1 150721Z 12010KT 26/20 A3013 RMK A01 T02610196  RH  067%=      5-min Rain = 0
KSW1 150722Z 12009KT 26/20 A3013 RMK A01 T02610196  RH  067%=      5-min Rain = 0
KSW1 150723Z 12009KT 26/20 A3013 RMK A01 T02600195  RH  067%=      5-min Rain = 0
KSW1 150724Z 12009KT 26/20 A3013 RMK A01 T02600196  RH  068%=      5-min Rain = 0
KSW1 150725Z 12009KT 26/20 A3013 RMK A01 T02600196  RH  068%=      5-min Rain = 0
KSW1 150726Z 12009KT 26/20 A3013 RMK A01 T02600196  RH  068%=      5-min Rain = 0
KSW1 150727Z 12009KT 26/20 A3013 RMK A01 T02600195  RH  068%=      5-min Rain = 0
KSW1 150728Z 12009KT 26/20 A3013 RMK A01 T02600196  RH  068%=      5-min Rain = 0
KSW1 150729Z 12009KT 26/20 A3013 RMK A01 T02600196  RH  068%=      5-min Rain = 0
KSW1 150730Z 12009KT 26/20 A3013 RMK A01 T02600196  RH  068%=      5-min Rain = 0
KSW1 150731Z 12009KT 26/20 A3013 RMK A01 T02600196  RH  068%=      5-min Rain = 0
KSW1 150732Z 12009KT 26/20 A3012 RMK A01 T02600196  RH  068%=      5-min Rain = 0
KSW1 150733Z 12009KT 26/20 A3012 RMK A01 T02600196  RH  068%=      5-min Rain = 0
KSW1 150734Z 12009KT 26/20 A3012 RMK A01 T02600196  RH  068%=      5-min Rain = 0
KSW1 150735Z 12008KT 26/20 A3012 RMK A01 T02600196  RH  068%=      5-min Rain = 0
KSW1 150736Z 13009KT 26/20 A3012 RMK A01 T02590196  RH  068%=      5-min Rain = 0
KSW1 150737Z 12009KT 26/20 A3012 RMK A01 T02590196  RH  068%=      5-min Rain = 0
KSW1 150738Z 13008KT 26/20 A3012 RMK A01 T02580196  RH  068%=      5-min Rain = 0
KSW1 150739Z 12008KT 26/20 A3012 RMK A01 T02580196  RH  068%=      5-min Rain = 0
KSW1 150740Z 12008KT 26/20 A3012 RMK A01 T02580196  RH  069%=      5-min Rain = 0
KSW1 150741Z 12008KT 26/20 A3012 RMK A01 T02570196  RH  069%=      5-min Rain = 0
KSW1 150742Z 12008KT 26/20 A3012 RMK A01 T02560195  RH  069%=      5-min Rain = 0
KSW1 150743Z 12008KT 26/20 A3012 RMK A01 T02560196  RH  069%=      5-min Rain = 0
KSW1 150744Z 12008KT 26/20 A3012 RMK A01 T02570196  RH  069%=      5-min Rain = 0
KSW1 150745Z 13008KT 26/20 A3012 RMK A01 T02560196  RH  069%=      5-min Rain = 0
KSW1 150746Z 12008KT 26/20 A3012 RMK A01 T02560196  RH  069%=      5-min Rain = 0
KSW1 150747Z 12008KT 26/20 A3012 RMK A01 T02560197  RH  070%=      5-min Rain = 0
KSW1 150748Z 12008KT 26/20 A3012 RMK A01 T02560196  RH  070%=      5-min Rain = 0
KSW1 150749Z 13008KT 26/20 A3012 RMK A01 T02550196  RH  070%=      5-min Rain = 0
KSW1 150750Z 12008KT 26/20 A3012 RMK A01 T02550196  RH  070%=      5-min Rain = 0
KSW1 150751Z 12007KT 26/20 A3012 RMK A01 T02550196  RH  070%=      5-min Rain = 0
KSW1 150752Z 13007KT 26/20 A3012 RMK A01 T02550196  RH  070%=      5-min Rain = 0
KSW1 150753Z 13007KT 25/20 A3012 RMK A01 T02540196  RH  070%=      5-min Rain = 0
KSW1 150754Z 13007KT 25/20 A3012 RMK A01 T02540196  RH  070%=      5-min Rain = 0
KSW1 150755Z 13007KT 25/20 A3012 RMK A01 T02540197  RH  071%=      5-min Rain = 0
KSW1 150756Z 13007KT 25/20 A3012 RMK A01 T02530197  RH  071%=      5-min Rain = 0
KSW1 150757Z 12008KT 25/20 A3012 RMK A01 T02530196  RH  071%=      5-min Rain = 0
KSW1 150758Z 12007KT 25/20 A3012 RMK A01 T02540197  RH  071%=      5-min Rain = 0
KSW1 150759Z 13007KT 25/20 A3013 RMK A01 T02540197  RH  071%=      5-min Rain = 0
KSW1 150800Z 12007KT 25/20 A3013 RMK A01 T02540197  RH  071%=      5-min Rain = 0
KSW1 150801Z 12007KT 25/20 A3013 RMK A01 T02530197  RH  071%=      5-min Rain = 0
KSW1 150802Z 13007KT 25/20 A3013 RMK A01 T02540197  RH  071%=      5-min Rain = 0
KSW1 150803Z 13008KT 25/20 A3013 RMK A01 T02540197  RH  071%=      5-min Rain = 0
KSW1 150804Z 13008KT 25/20 A3013 RMK A01 T02540198  RH  071%=      5-min Rain = 0
KSW1 150805Z 13008KT 25/20 A3013 RMK A01 T02540197  RH  071%=      5-min Rain = 0
KSW1 150806Z 13007KT 26/20 A3013 RMK A01 T02550198  RH  071%=      5-min Rain = 0
KSW1 150807Z 13007KT 26/20 A3013 RMK A01 T02550198  RH  071%=      5-min Rain = 0
KSW1 150808Z 13008KT 26/20 A3012 RMK A01 T02550198  RH  071%=      5-min Rain = 0
KSW1 150809Z 13008KT 26/20 A3012 RMK A01 T02550198  RH  071%=      5-min Rain = 0
KSW1 150810Z 13008KT 26/20 A3012 RMK A01 T02560198  RH  071%=      5-min Rain = 0
KSW1 150811Z 13008KT 26/20 A3012 RMK A01 T02560198  RH  070%=      5-min Rain = 0
KSW1 150812Z 13008KT 26/20 A3012 RMK A01 T02560198  RH  070%=      5-min Rain = 0
KSW1 150813Z 13009KT 26/20 A3012 RMK A01 T02560198  RH  070%=      5-min Rain = 0
KSW1 150814Z 13009KT 26/20 A3012 RMK A01 T02560199  RH  070%=      5-min Rain = 0
KSW1 150815Z 12009KT 26/20 A3012 RMK A01 T02570199  RH  070%=      5-min Rain = 0
KSW1 150816Z 13008KT 26/20 A3012 RMK A01 T02560199  RH  070%=      5-min Rain = 0
KSW1 150817Z 12009KT 26/20 A3012 RMK A01 T02560199  RH  071%=      5-min Rain = 0
KSW1 150818Z 12009KT 26/20 A3012 RMK A01 T02570199  RH  071%=      5-min Rain = 0
KSW1 150819Z 12009KT 26/20 A3012 RMK A01 T02560199  RH  071%=      5-min Rain = 0
KSW1 150820Z 13009KT 26/20 A3012 RMK A01 T02570200  RH  071%=      5-min Rain = 0
KSW1 150821Z 12007KT 26/20 A3012 RMK A01 T02560199  RH  071%=      5-min Rain = 0
KSW1 150822Z 13009KT 26/20 A3012 RMK A01 T02560200  RH  071%=      5-min Rain = 0
KSW1 150823Z 12009KT 26/20 A3012 RMK A01 T02560200  RH  071%=      5-min Rain = 0
KSW1 150824Z 13009KT 26/20 A3012 RMK A01 T02560200  RH  071%=      5-min Rain = 0
KSW1 150825Z 13008KT 26/20 A3012 RMK A01 T02570200  RH  071%=      5-min Rain = 0
KSW1 150826Z 13010KT 26/20 A3012 RMK A01 T02570200  RH  071%=      5-min Rain = 0
KSW1 150827Z 12009KT 26/20 A3012 RMK A01 T02570200  RH  071%=      5-min Rain = 0
KSW1 150828Z 13009KT 26/20 A3012 RMK A01 T02570200  RH  071%=      5-min Rain = 0
KSW1 150829Z 13008KT 26/20 A3012 RMK A01 T02570201  RH  071%=      5-min Rain = 0
KSW1 150830Z 13009KT 26/20 A3012 RMK A01 T02570201  RH  071%=      5-min Rain = 0
KSW1 150831Z 13010KT 26/20 A3012 RMK A01 T02570201  RH  071%=      5-min Rain = 0
KSW1 150832Z 13008KT 26/20 A3012 RMK A01 T02570201  RH  071%=      5-min Rain = 0
KSW1 150833Z 13009KT 26/20 A3012 RMK A01 T02570201  RH  071%=      5-min Rain = 0
KSW1 150834Z 13008KT 26/20 A3012 RMK A01 T02560201  RH  071%=      5-min Rain = 0
KSW1 150835Z 13008KT 26/20 A3012 RMK A01 T02560201  RH  071%=      5-min Rain = 0
KSW1 150836Z 13008KT 26/20 A3012 RMK A01 T02560201  RH  071%=      5-min Rain = 0
KSW1 150837Z 13009KT 26/20 A3011 RMK A01 T02560201  RH  071%=      5-min Rain = 0
KSW1 150838Z 13008KT 26/20 A3011 RMK A01 T02560201  RH  071%=      5-min Rain = 0
KSW1 150839Z 13008KT 26/20 A3011 RMK A01 T02550200  RH  072%=      5-min Rain = 0
KSW1 150840Z 14007KT 26/20 A3011 RMK A01 T02550201  RH  072%=      5-min Rain = 0
KSW1 150841Z 13008KT 26/20 A3011 RMK A01 T02550200  RH  072%=      5-min Rain = 0
KSW1 150842Z 14007KT 26/20 A3011 RMK A01 T02550201  RH  072%=      5-min Rain = 0
KSW1 150843Z 14007KT 25/20 A3011 RMK A01 T02540200  RH  072%=      5-min Rain = 0
KSW1 150844Z 14006KT 25/20 A3011 RMK A01 T02540201  RH  072%=      5-min Rain = 0
KSW1 150845Z 14007KT 25/20 A3011 RMK A01 T02530201  RH  073%=      5-min Rain = 0
KSW1 150846Z 14007KT 25/20 A3011 RMK A01 T02530201  RH  073%=      5-min Rain = 0
KSW1 150847Z 14006KT 25/20 A3011 RMK A01 T02530201  RH  073%=      5-min Rain = 0
KSW1 150848Z 14006KT 25/20 A3011 RMK A01 T02530201  RH  073%=      5-min Rain = 0
KSW1 150849Z 14006KT 25/20 A3011 RMK A01 T02520201  RH  073%=      5-min Rain = 0
KSW1 150850Z 14006KT 25/20 A3011 RMK A01 T02520201  RH  073%=      5-min Rain = 0
KSW1 150851Z 14006KT 25/20 A3011 RMK A01 T02510201  RH  073%=      5-min Rain = 0
KSW1 150852Z 14006KT 25/20 A3011 RMK A01 T02510200  RH  074%=      5-min Rain = 0
KSW1 150853Z 14007KT 25/20 A3011 RMK A01 T02510201  RH  074%=      5-min Rain = 0
KSW1 150854Z 14006KT 25/20 A3011 RMK A01 T02500201  RH  074%=      5-min Rain = 0
KSW1 150855Z 14006KT 25/20 A3011 RMK A01 T02500201  RH  074%=      5-min Rain = 0
KSW1 150856Z 14006KT 25/20 A3011 RMK A01 T02500201  RH  074%=      5-min Rain = 0
KSW1 150857Z 14006KT 25/20 A3011 RMK A01 T02500201  RH  074%=      5-min Rain = 0
KSW1 150858Z 14006KT 25/20 A3011 RMK A01 T02490201  RH  074%=      5-min Rain = 0
KSW1 150859Z 14006KT 25/20 A3011 RMK A01 T02490201  RH  075%=      5-min Rain = 0
KSW1 150900Z 14006KT 25/20 A3011 RMK A01 T02490201  RH  075%=      5-min Rain = 0
KSW1 150901Z 14005KT 25/20 A3011 RMK A01 T02480201  RH  075%=      5-min Rain = 0
KSW1 150902Z 14006KT 25/20 A3011 RMK A01 T02480201  RH  075%=      5-min Rain = 0
KSW1 150903Z 14006KT 25/20 A3011 RMK A01 T02480201  RH  075%=      5-min Rain = 0
KSW1 150904Z 14007KT 25/20 A3011 RMK A01 T02480201  RH  075%=      5-min Rain = 0
KSW1 150905Z 13007KT 25/20 A3011 RMK A01 T02480201  RH  075%=      5-min Rain = 0
KSW1 150906Z 13006KT 25/20 A3011 RMK A01 T02470201  RH  075%=      5-min Rain = 0
KSW1 150907Z 13007KT 25/20 A3011 RMK A01 T02470201  RH  076%=      5-min Rain = 0
KSW1 150908Z 13007KT 25/20 A3011 RMK A01 T02460201  RH  076%=      5-min Rain = 0
KSW1 150909Z 13007KT 25/20 A3011 RMK A01 T02460201  RH  076%=      5-min Rain = 0
KSW1 150910Z 13008KT 25/20 A3011 RMK A01 T02460201  RH  076%=      5-min Rain = 0
KSW1 150911Z 13007KT 25/20 A3011 RMK A01 T02460201  RH  076%=      5-min Rain = 0
KSW1 150912Z 13008KT 25/20 A3011 RMK A01 T02450201  RH  076%=      5-min Rain = 0
KSW1 150913Z 13007KT 25/20 A3011 RMK A01 T02450201  RH  076%=      5-min Rain = 0
KSW1 150914Z 13008KT 25/20 A3011 RMK A01 T02450200  RH  076%=      5-min Rain = 0
KSW1 150915Z 13008KT 24/20 A3011 RMK A01 T02440201  RH  076%=      5-min Rain = 0
KSW1 150916Z 13007KT 25/20 A3011 RMK A01 T02450201  RH  076%=      5-min Rain = 0
KSW1 150917Z 13007KT 25/20 A3011 RMK A01 T02450201  RH  076%=      5-min Rain = 0
KSW1 150918Z 13007KT 24/20 A3011 RMK A01 T02440201  RH  077%=      5-min Rain = 0
KSW1 150919Z 13008KT 24/20 A3011 RMK A01 T02440201  RH  077%=      5-min Rain = 0
KSW1 150920Z 13008KT 25/20 A3011 RMK A01 T02450201  RH  077%=      5-min Rain = 0
KSW1 150921Z 13007KT 25/20 A3011 RMK A01 T02450201  RH  077%=      5-min Rain = 0
KSW1 150922Z 13008KT 25/20 A3011 RMK A01 T02450201  RH  077%=      5-min Rain = 0
KSW1 150923Z 13007KT 25/20 A3011 RMK A01 T02450201  RH  077%=      5-min Rain = 0
KSW1 150924Z 13008KT 24/20 A3011 RMK A01 T02440201  RH  077%=      5-min Rain = 0
KSW1 150925Z 13008KT 24/20 A3011 RMK A01 T02440201  RH  077%=      5-min Rain = 0
KSW1 150926Z 13008KT 24/20 A3011 RMK A01 T02440201  RH  077%=      5-min Rain = 0
KSW1 150927Z 13007KT 24/20 A3011 RMK A01 T02440201  RH  077%=      5-min Rain = 0
KSW1 150928Z 13008KT 24/20 A3011 RMK A01 T02440201  RH  077%=      5-min Rain = 0
KSW1 150929Z 13009KT 24/20 A3011 RMK A01 T02440202  RH  077%=      5-min Rain = 0
KSW1 150930Z 13008KT 24/20 A3011 RMK A01 T02440201  RH  077%=      5-min Rain = 0
KSW1 150931Z 13009KT 24/20 A3011 RMK A01 T02440202  RH  077%=      5-min Rain = 0
KSW1 150932Z 13009KT 24/20 A3011 RMK A01 T02440202  RH  077%=      5-min Rain = 0
KSW1 150933Z 13009KT 24/20 A3011 RMK A01 T02440202  RH  077%=      5-min Rain = 0
KSW1 150934Z 13008KT 24/20 A3011 RMK A01 T02440202  RH  077%=      5-min Rain = 0
KSW1 150935Z 13008KT 24/20 A3011 RMK A01 T02440202  RH  077%=      5-min Rain = 0
KSW1 150936Z 14008KT 24/20 A3011 RMK A01 T02440202  RH  077%=      5-min Rain = 0
KSW1 150937Z 13008KT 24/20 A3011 RMK A01 T02440202  RH  077%=      5-min Rain = 0
KSW1 150938Z 13009KT 24/20 A3011 RMK A01 T02440202  RH  077%=      5-min Rain = 0
KSW1 150939Z 13008KT 24/20 A3011 RMK A01 T02440202  RH  077%=      5-min Rain = 0
KSW1 150940Z 13009KT 24/20 A3011 RMK A01 T02440202  RH  078%=      5-min Rain = 0
KSW1 150941Z 13009KT 24/20 A3011 RMK A01 T02440202  RH  078%=      5-min Rain = 0
KSW1 150942Z 13008KT 24/20 A3011 RMK A01 T02440202  RH  078%=      5-min Rain = 0
KSW1 150943Z 13009KT 24/20 A3011 RMK A01 T02440202  RH  077%=      5-min Rain = 0
KSW1 150944Z 13007KT 24/20 A3011 RMK A01 T02430202  RH  077%=      5-min Rain = 0
KSW1 150945Z 13008KT 24/20 A3011 RMK A01 T02440202  RH  078%=      5-min Rain = 0
KSW1 150946Z 13008KT 24/20 A301 RMK A01 T02430202  RH  078%=      5-min Rain = 0
KSW1 150947Z 13008KT 24/20 A301 RMK A01 T02430202  RH  078%=      5-min Rain = 0
KSW1 150948Z 13007KT 24/20 A301 RMK A01 T02430202  RH  078%=      5-min Rain = 0
KSW1 150949Z 13007KT 24/20 A301 RMK A01 T02430202  RH  078%=      5-min Rain = 0
KSW1 150950Z 13008KT 24/20 A301 RMK A01 T02430202  RH  078%=      5-min Rain = 0
KSW1 150951Z 13007KT 24/20 A301 RMK A01 T02430202  RH  078%=      5-min Rain = 0
KSW1 150952Z 13008KT 24/20 A301 RMK A01 T02430202  RH  078%=      5-min Rain = 0
KSW1 150953Z 13007KT 24/20 A301 RMK A01 T02430202  RH  078%=      5-min Rain = 0
KSW1 150954Z 13007KT 24/20 A301 RMK A01 T02430202  RH  078%=      5-min Rain = 0
KSW1 150955Z 14007KT 24/20 A301 RMK A01 T02420202  RH  078%=      5-min Rain = 0
KSW1 150956Z 13007KT 24/20 A301 RMK A01 T02420202  RH  078%=      5-min Rain = 0
KSW1 150957Z 13007KT 24/20 A301 RMK A01 T02420202  RH  078%=      5-min Rain = 0
KSW1 150958Z 13007KT 24/20 A301 RMK A01 T02420202  RH  078%=      5-min Rain = 0
KSW1 150959Z 13007KT 24/20 A301 RMK A01 T02430202  RH  078%=      5-min Rain = 0
KSW1 151000Z 13006KT 24/20 A301 RMK A01 T02430202  RH  078%=      5-min Rain = 0
KSW1 151001Z 13007KT 24/20 A301 RMK A01 T02430202  RH  078%=      5-min Rain = 0
KSW1 151002Z 13007KT 24/20 A301 RMK A01 T02430202  RH  078%=      5-min Rain = 0
KSW1 151003Z 13006KT 24/20 A301 RMK A01 T02430202  RH  078%=      5-min Rain = 0
KSW1 151004Z 13007KT 24/20 A301 RMK A01 T02420202  RH  078%=      5-min Rain = 0
KSW1 151005Z 13008KT 24/20 A301 RMK A01 T02420202  RH  078%=      5-min Rain = 0
KSW1 151006Z 13007KT 24/20 A301 RMK A01 T02420202  RH  078%=      5-min Rain = 0
KSW1 151007Z 13007KT 24/20 A301 RMK A01 T02420202  RH  078%=      5-min Rain = 0
KSW1 151008Z 12006KT 24/20 A301 RMK A01 T02420202  RH  078%=      5-min Rain = 0
KSW1 151009Z 13007KT 24/20 A301 RMK A01 T02420202  RH  078%=      5-min Rain = 0
KSW1 151010Z 13007KT 24/20 A301 RMK A01 T02420202  RH  078%=      5-min Rain = 0
KSW1 151011Z 13007KT 24/20 A3011 RMK A01 T02420202  RH  078%=      5-min Rain = 0
KSW1 151012Z 13008KT 24/20 A301 RMK A01 T02420202  RH  078%=      5-min Rain = 0
KSW1 151013Z 13008KT 24/20 A301 RMK A01 T02420202  RH  078%=      5-min Rain = 0
KSW1 151014Z 13007KT 24/20 A301 RMK A01 T02420202  RH  078%=      5-min Rain = 0
KSW1 151015Z 13007KT 24/20 A301 RMK A01 T02420202  RH  078%=      5-min Rain = 0
KSW1 151016Z 13007KT 24/20 A301 RMK A01 T02420202  RH  078%=      5-min Rain = 0
KSW1 151017Z 13007KT 24/20 A301 RMK A01 T02410202  RH  078%=      5-min Rain = 0
KSW1 151018Z 13007KT 24/20 A301 RMK A01 T02410201  RH  078%=      5-min Rain = 0
KSW1 151019Z 13008KT 24/20 A301 RMK A01 T02410201  RH  078%=      5-min Rain = 0
KSW1 151020Z 13007KT 24/20 A301 RMK A01 T02420201  RH  078%=      5-min Rain = 0
KSW1 151021Z 13007KT 24/20 A301 RMK A01 T02420201  RH  078%=      5-min Rain = 0
KSW1 151022Z 13007KT 24/20 A301 RMK A01 T02420201  RH  078%=      5-min Rain = 0
KSW1 151023Z 13008KT 24/20 A301 RMK A01 T02420202  RH  078%=      5-min Rain = 0
KSW1 151024Z 13007KT 24/20 A301 RMK A01 T02420202  RH  078%=      5-min Rain = 0
KSW1 151025Z 14007KT 24/20 A301 RMK A01 T02420202  RH  078%=      5-min Rain = 0
KSW1 151026Z 14007KT 24/20 A301 RMK A01 T02420201  RH  078%=      5-min Rain = 0
KSW1 151027Z 14006KT 24/20 A301 RMK A01 T02420201  RH  078%=      5-min Rain = 0
KSW1 151028Z 14006KT 24/20 A301 RMK A01 T02410201  RH  078%=      5-min Rain = 0
KSW1 151029Z 14007KT 24/20 A301 RMK A01 T02410201  RH  078%=      5-min Rain = 0
KSW1 151030Z 14006KT 24/20 A301 RMK A01 T02400201  RH  079%=      5-min Rain = 0
KSW1 151031Z 15007KT 24/20 A301 RMK A01 T02410201  RH  079%=      5-min Rain = 0
KSW1 151032Z 14007KT 24/20 A301 RMK A01 T02410201  RH  079%=      5-min Rain = 0
KSW1 151033Z 15006KT 24/20 A301 RMK A01 T02410201  RH  078%=      5-min Rain = 0
KSW1 151034Z 15006KT 24/20 A301 RMK A01 T02410201  RH  078%=      5-min Rain = 0
KSW1 151035Z 15006KT 24/20 A301 RMK A01 T02410201  RH  078%=      5-min Rain = 0
KSW1 151036Z 15006KT 24/20 A301 RMK A01 T02410201  RH  078%=      5-min Rain = 0
KSW1 151037Z 15005KT 24/20 A301 RMK A01 T02410201  RH  079%=      5-min Rain = 0
KSW1 151038Z 15005KT 24/20 A301 RMK A01 T02400201  RH  079%=      5-min Rain = 0
KSW1 151039Z 15005KT 24/20 A301 RMK A01 T02410201  RH  079%=      5-min Rain = 0
KSW1 151040Z 15006KT 24/20 A301 RMK A01 T02400201  RH  079%=      5-min Rain = 0
KSW1 151041Z 15007KT 24/20 A301 RMK A01 T02400201  RH  079%=      5-min Rain = 0
KSW1 151042Z 15006KT 24/20 A301 RMK A01 T02400201  RH  079%=      5-min Rain = 0
KSW1 151043Z 15006KT 24/20 A301 RMK A01 T02400201  RH  079%=      5-min Rain = 0
KSW1 151044Z 15006KT 24/20 A301 RMK A01 T02400201  RH  079%=      5-min Rain = 0
KSW1 151045Z 14006KT 24/20 A301 RMK A01 T02400201  RH  079%=      5-min Rain = 0
KSW1 151046Z 14007KT 24/20 A301 RMK A01 T02390201  RH  079%=      5-min Rain = 0
KSW1 151047Z 14007KT 24/20 A301 RMK A01 T02390201  RH  079%=      5-min Rain = 0
KSW1 151048Z 14006KT 24/20 A301 RMK A01 T02390201  RH  079%=      5-min Rain = 0
KSW1 151049Z 14006KT 24/20 A301 RMK A01 T02390201  RH  079%=      5-min Rain = 0
KSW1 151050Z 14006KT 24/20 A301 RMK A01 T02390201  RH  079%=      5-min Rain = 0
KSW1 151051Z 14007KT 24/20 A301 RMK A01 T02390201  RH  079%=      5-min Rain = 0
KSW1 151052Z 14006KT 24/20 A301 RMK A01 T02390201  RH  080%=      5-min Rain = 0
KSW1 151053Z 14006KT 24/20 A301 RMK A01 T02390201  RH  079%=      5-min Rain = 0
KSW1 151054Z 15006KT 24/20 A301 RMK A01 T02390201  RH  079%=      5-min Rain = 0
KSW1 151055Z 15006KT 24/20 A301 RMK A01 T02390201  RH  080%=      5-min Rain = 0
KSW1 151056Z 15006KT 24/20 A301 RMK A01 T02390201  RH  080%=      5-min Rain = 0
KSW1 151057Z 15006KT 24/20 A301 RMK A01 T02390201  RH  080%=      5-min Rain = 0
KSW1 151058Z 15006KT 24/20 A301 RMK A01 T02380201  RH  080%=      5-min Rain = 0
KSW1 151059Z 15006KT 24/20 A301 RMK A01 T02380201  RH  080%=      5-min Rain = 0
KSW1 151100Z 15006KT 24/20 A301 RMK A01 T02380201  RH  080%=      5-min Rain = 0
KSW1 151101Z 14005KT 24/20 A301 RMK A01 T02370201  RH  080%=      5-min Rain = 0
KSW1 151102Z 14005KT 24/20 A301 RMK A01 T02370201  RH  080%=      5-min Rain = 0
KSW1 151103Z 14005KT 24/20 A301 RMK A01 T02370201  RH  080%=      5-min Rain = 0
KSW1 151104Z 14005KT 24/20 A301 RMK A01 T02370201  RH  080%=      5-min Rain = 0
KSW1 151105Z 14005KT 24/20 A301 RMK A01 T02370201  RH  080%=      5-min Rain = 0
KSW1 151106Z 14005KT 24/20 A301 RMK A01 T02360201  RH  080%=      5-min Rain = 0
KSW1 151107Z 14005KT 24/20 A301 RMK A01 T02370201  RH  080%=      5-min Rain = 0
KSW1 151108Z 14005KT 24/20 A301 RMK A01 T02360201  RH  081%=      5-min Rain = 0
KSW1 151109Z 14005KT 24/20 A301 RMK A01 T02360200  RH  081%=      5-min Rain = 0
KSW1 151110Z 14005KT 24/20 A301 RMK A01 T02360200  RH  081%=      5-min Rain = 0
KSW1 151111Z 14005KT 24/20 A301 RMK A01 T02360201  RH  081%=      5-min Rain = 0
KSW1 151112Z 14006KT 24/20 A301 RMK A01 T02360201  RH  081%=      5-min Rain = 0
KSW1 151113Z 14005KT 24/20 A301 RMK A01 T02350200  RH  081%=      5-min Rain = 0
KSW1 151114Z 14005KT 24/20 A301 RMK A01 T02360201  RH  081%=      5-min Rain = 0
KSW1 151115Z 14005KT 24/20 A301 RMK A01 T02350200  RH  081%=      5-min Rain = 0
KSW1 151116Z 14005KT 24/20 A301 RMK A01 T02350200  RH  081%=      5-min Rain = 0
KSW1 151117Z 14005KT 24/20 A301 RMK A01 T02350200  RH  081%=      5-min Rain = 0
KSW1 151118Z 14005KT 24/20 A301 RMK A01 T02350200  RH  081%=      5-min Rain = 0
KSW1 151119Z 14005KT 24/20 A301 RMK A01 T02350200  RH  081%=      5-min Rain = 0
KSW1 151120Z 14005KT 24/20 A301 RMK A01 T02350200  RH  081%=      5-min Rain = 0
KSW1 151121Z 14004KT 23/20 A301 RMK A01 T02340200  RH  081%=      5-min Rain = 0
KSW1 151122Z 14005KT 23/20 A301 RMK A01 T02340200  RH  081%=      5-min Rain = 0
KSW1 151123Z 14005KT 23/20 A301 RMK A01 T02330200  RH  081%=      5-min Rain = 0
KSW1 151124Z 14005KT 23/20 A301 RMK A01 T02330200  RH  081%=      5-min Rain = 0
KSW1 151125Z 15005KT 23/20 A301 RMK A01 T02330200  RH  082%=      5-min Rain = 0
KSW1 151126Z 15005KT 23/20 A301 RMK A01 T02330200  RH  082%=      5-min Rain = 0
KSW1 151127Z 15005KT 23/20 A301 RMK A01 T02330200  RH  082%=      5-min Rain = 0
KSW1 151128Z 15004KT 23/20 A301 RMK A01 T02330200  RH  082%=      5-min Rain = 0
KSW1 151129Z 16003KT 23/20 A301 RMK A01 T02320200  RH  082%=      5-min Rain = 0
KSW1 151130Z 16004KT 23/20 A301 RMK A01 T02320200  RH  082%=      5-min Rain = 0
KSW1 151131Z 16003KT 23/20 A301 RMK A01 T02320200  RH  082%=      5-min Rain = 0
KSW1 151132Z 16003KT 23/20 A301 RMK A01 T02320199  RH  082%=      5-min Rain = 0
KSW1 151133Z 15003KT 23/20 A301 RMK A01 T02320200  RH  082%=      5-min Rain = 0
KSW1 151134Z 15002KT 23/20 A301 RMK A01 T02320200  RH  082%=      5-min Rain = 0
KSW1 151135Z 15002KT 23/20 A301 RMK A01 T02320199  RH  082%=      5-min Rain = 0
KSW1 151136Z 15003KT 23/20 A301 RMK A01 T02320199  RH  082%=      5-min Rain = 0
KSW1 151137Z 15002KT 23/20 A301 RMK A01 T02320200  RH  082%=      5-min Rain = 0
KSW1 151138Z 16002KT 23/20 A301 RMK A01 T02310199  RH  082%=      5-min Rain = 0
KSW1 151139Z 16002KT 23/20 A301 RMK A01 T02310200  RH  082%=      5-min Rain = 0
KSW1 151140Z 17001KT 23/20 A301 RMK A01 T02310200  RH  082%=      5-min Rain = 0
KSW1 151141Z 16001KT 23/20 A301 RMK A01 T02310199  RH  082%=      5-min Rain = 0
KSW1 151142Z 18002KT 23/20 A301 RMK A01 T02310198  RH  082%=      5-min Rain = 0
KSW1 151143Z 19001KT 23/20 A301 RMK A01 T02300198  RH  082%=      5-min Rain = 0
KSW1 151144Z 13000KT 23/20 A301 RMK A01 T02300199  RH  082%=      5-min Rain = 0
KSW1 151145Z 15000KT 23/20 A301 RMK A01 T02300199  RH  083%=      5-min Rain = 0
KSW1 151146Z 18002KT 23/20 A301 RMK A01 T02300199  RH  083%=      5-min Rain = 0
KSW1 151147Z 17002KT 23/20 A301 RMK A01 T02300199  RH  083%=      5-min Rain = 0
KSW1 151148Z 18001KT 23/20 A301 RMK A01 T02300199  RH  083%=      5-min Rain = 0
KSW1 151149Z 17002KT 23/20 A301 RMK A01 T02310199  RH  082%=      5-min Rain = 0
KSW1 151150Z 17002KT 23/20 A301 RMK A01 T02310199  RH  082%=      5-min Rain = 0
KSW1 151151Z 17002KT 23/20 A301 RMK A01 T02320200  RH  082%=      5-min Rain = 0
KSW1 151152Z 16002KT 23/20 A301 RMK A01 T02320199  RH  082%=      5-min Rain = 0
KSW1 151153Z 16001KT 23/20 A301 RMK A01 T02320199  RH  082%=      5-min Rain = 0
KSW1 151154Z 16002KT 23/20 A301 RMK A01 T02320199  RH  082%=      5-min Rain = 0
KSW1 151155Z 16002KT 23/20 A301 RMK A01 T02320199  RH  082%=      5-min Rain = 0
KSW1 151156Z 15001KT 23/20 A301 RMK A01 T02320199  RH  082%=      5-min Rain = 0
KSW1 151157Z 15001KT 23/20 A301 RMK A01 T02320199  RH  082%=      5-min Rain = 0
KSW1 151158Z 15001KT 23/20 A301 RMK A01 T02320199  RH  082%=      5-min Rain = 0
KSW1 151159Z 14001KT 23/20 A301 RMK A01 T02320199  RH  082%=      5-min Rain = 0
KSW1 151200Z 13002KT 23/20 A301 RMK A01 T02320200  RH  082%=      5-min Rain = 0
KSW1 151201Z 13002KT 23/20 A301 RMK A01 T02320199  RH  082%=      5-min Rain = 0
KSW1 151202Z 14002KT 23/20 A301 RMK A01 T02310199  RH  082%=      5-min Rain = 0
KSW1 151203Z 13002KT 23/20 A3011 RMK A01 T02310200  RH  082%=      5-min Rain = 0
KSW1 151204Z 14002KT 23/20 A3011 RMK A01 T02310199  RH  082%=      5-min Rain = 0
KSW1 151205Z 13002KT 23/20 A3011 RMK A01 T02310199  RH  082%=      5-min Rain = 0
KSW1 151206Z 13002KT 23/20 A3011 RMK A01 T02310199  RH  083%=      5-min Rain = 0
KSW1 151207Z 14002KT 23/20 A3011 RMK A01 T02310199  RH  082%=      5-min Rain = 0
KSW1 151208Z 13002KT 23/20 A3011 RMK A01 T02310199  RH  082%=      5-min Rain = 0
KSW1 151209Z 13002KT 23/20 A3011 RMK A01 T02310199  RH  082%=      5-min Rain = 0
KSW1 151210Z 13003KT 23/20 A3011 RMK A01 T02310199  RH  082%=      5-min Rain = 0
KSW1 151211Z 13002KT 23/20 A3011 RMK A01 T02310199  RH  082%=      5-min Rain = 0
KSW1 151212Z 13002KT 23/20 A3011 RMK A01 T02310199  RH  082%=      5-min Rain = 0
KSW1 151213Z 13002KT 23/20 A3011 RMK A01 T02310199  RH  082%=      5-min Rain = 0
KSW1 151214Z 13003KT 23/20 A3011 RMK A01 T02310199  RH  082%=      5-min Rain = 0
KSW1 151215Z 14004KT 23/20 A3011 RMK A01 T02310199  RH  082%=      5-min Rain = 0
KSW1 151216Z 14003KT 23/20 A3011 RMK A01 T02310200  RH  083%=      5-min Rain = 0
KSW1 151217Z 14003KT 23/20 A3011 RMK A01 T02310200  RH  082%=      5-min Rain = 0
KSW1 151218Z 15004KT 23/20 A3011 RMK A01 T02310199  RH  082%=      5-min Rain = 0
KSW1 151219Z 15003KT 23/20 A3011 RMK A01 T02310199  RH  082%=      5-min Rain = 0
KSW1 151220Z 15003KT 23/20 A3011 RMK A01 T02310199  RH  082%=      5-min Rain = 0
KSW1 151221Z 16003KT 23/20 A3011 RMK A01 T02310199  RH  082%=      5-min Rain = 0
KSW1 151222Z 15003KT 23/20 A3011 RMK A01 T02310199  RH  082%=      5-min Rain = 0
KSW1 151223Z 16002KT 23/20 A3011 RMK A01 T02310199  RH  082%=      5-min Rain = 0
KSW1 151224Z 15002KT 23/20 A3011 RMK A01 T02310199  RH  082%=      5-min Rain = 0
KSW1 151225Z 15002KT 23/20 A3011 RMK A01 T02320199  RH  082%=      5-min Rain = 0
KSW1 151226Z 15001KT 23/20 A3011 RMK A01 T02320199  RH  082%=      5-min Rain = 0
KSW1 151227Z 15002KT 23/20 A3011 RMK A01 T02320199  RH  082%=      5-min Rain = 0
KSW1 151228Z 14002KT 23/20 A3011 RMK A01 T02320199  RH  082%=      5-min Rain = 0
KSW1 151229Z 14002KT 23/20 A3011 RMK A01 T02320200  RH  082%=      5-min Rain = 0
KSW1 151230Z 14002KT 23/20 A3012 RMK A01 T02320199  RH  082%=      5-min Rain = 0
KSW1 151231Z 14002KT 23/20 A3012 RMK A01 T02330199  RH  082%=      5-min Rain = 0
KSW1 151232Z 14002KT 23/20 A3012 RMK A01 T02330199  RH  081%=      5-min Rain = 0
KSW1 151233Z 14002KT 23/20 A3012 RMK A01 T02330199  RH  081%=      5-min Rain = 0
KSW1 151234Z 14001KT 23/20 A3012 RMK A01 T02330199  RH  081%=      5-min Rain = 0
KSW1 151235Z 16002KT 23/20 A3012 RMK A01 T02330199  RH  081%=      5-min Rain = 0
KSW1 151236Z 16001KT 23/20 A3012 RMK A01 T02340200  RH  081%=      5-min Rain = 0
KSW1 151237Z 17001KT 23/20 A3012 RMK A01 T02330199  RH  081%=      5-min Rain = 0
KSW1 151238Z 19001KT 23/20 A3012 RMK A01 T02340199  RH  081%=      5-min Rain = 0
KSW1 151239Z 19001KT 23/20 A3012 RMK A01 T02340199  RH  081%=      5-min Rain = 0
KSW1 151240Z 20001KT 23/20 A3012 RMK A01 T02330199  RH  081%=      5-min Rain = 0
KSW1 151241Z 21001KT 23/20 A3012 RMK A01 T02330199  RH  081%=      5-min Rain = 0
KSW1 151242Z 23001KT 23/20 A3012 RMK A01 T02320199  RH  082%=      5-min Rain = 0
KSW1 151243Z 25001KT 23/20 A3012 RMK A01 T02320199  RH  082%=      5-min Rain = 0
KSW1 151244Z 25001KT 23/20 A3012 RMK A01 T02320199  RH  082%=      5-min Rain = 0
KSW1 151245Z 25001KT 23/20 A3012 RMK A01 T02310199  RH  082%=      5-min Rain = 0
KSW1 151246Z 24001KT 23/20 A3012 RMK A01 T02310199  RH  082%=      5-min Rain = 0
KSW1 151247Z 23001KT 23/20 A3012 RMK A01 T02320199  RH  082%=      5-min Rain = 0
KSW1 151248Z 25002KT 23/20 A3012 RMK A01 T02310199  RH  082%=      5-min Rain = 0
KSW1 151249Z 25002KT 23/20 A3012 RMK A01 T02310199  RH  082%=      5-min Rain = 0
KSW1 151250Z 23001KT 23/20 A3012 RMK A01 T02310199  RH  082%=      5-min Rain = 0
KSW1 151251Z 24001KT 23/20 A3012 RMK A01 T02310199  RH  082%=      5-min Rain = 0
KSW1 151252Z 25001KT 23/20 A3012 RMK A01 T02310199  RH  082%=      5-min Rain = 0
KSW1 151253Z 23001KT 23/20 A3012 RMK A01 T02320200  RH  082%=      5-min Rain = 0
KSW1 151254Z 23000KT 23/20 A3012 RMK A01 T02330200  RH  082%=      5-min Rain = 0
KSW1 151255Z 22000KT 23/20 A3012 RMK A01 T02340201  RH  082%=      5-min Rain = 0
KSW1 151256Z 00000KT 24/20 A3012 RMK A01 T02360202  RH  081%=      5-min Rain = 0
KSW1 151257Z 00000KT 24/20 A3012 RMK A01 T02390202  RH  080%=      5-min Rain = 0
KSW1 151258Z 00000KT 24/20 A3012 RMK A01 T02410202  RH  079%=      5-min Rain = 0
KSW1 151259Z 10001KT 24/20 A3012 RMK A01 T02430202  RH  078%=      5-min Rain = 0
KSW1 151300Z 11001KT 24/20 A3012 RMK A01 T02440201  RH  077%=      5-min Rain = 0
KSW1 151301Z 10001KT 24/20 A3012 RMK A01 T02440201  RH  077%=      5-min Rain = 0
KSW1 151302Z 09001KT 25/20 A3012 RMK A01 T02450202  RH  077%=      5-min Rain = 0
KSW1 151303Z 10002KT 25/20 A3012 RMK A01 T02460202  RH  076%=      5-min Rain = 0
KSW1 151304Z 09001KT 25/20 A3012 RMK A01 T02460201  RH  076%=      5-min Rain = 0
KSW1 151305Z 10002KT 25/20 A3012 RMK A01 T02450201  RH  076%=      5-min Rain = 0
KSW1 151306Z 11002KT 25/20 A3012 RMK A01 T02450201  RH  077%=      5-min Rain = 0
KSW1 151307Z 10002KT 24/20 A3012 RMK A01 T02440201  RH  077%=      5-min Rain = 0
KSW1 151308Z 10002KT 25/20 A3012 RMK A01 T02450201  RH  077%=      5-min Rain = 0
KSW1 151309Z 11002KT 25/20 A3013 RMK A01 T02450201  RH  077%=      5-min Rain = 0
KSW1 151310Z 11003KT 24/20 A3013 RMK A01 T02440201  RH  077%=      5-min Rain = 0
KSW1 151311Z 10002KT 24/20 A3013 RMK A01 T02440201  RH  077%=      5-min Rain = 0
KSW1 151312Z 10003KT 24/20 A3013 RMK A01 T02440201  RH  077%=      5-min Rain = 0
KSW1 151313Z 11003KT 25/20 A3013 RMK A01 T02450201  RH  077%=      5-min Rain = 0
KSW1 151314Z 10004KT 25/20 A3013 RMK A01 T02450201  RH  077%=      5-min Rain = 0
KSW1 151315Z 10004KT 25/20 A3013 RMK A01 T02460202  RH  076%=      5-min Rain = 0
KSW1 151316Z 09004KT 25/20 A3013 RMK A01 T02470202  RH  076%=      5-min Rain = 0
KSW1 151317Z 10004KT 25/20 A3013 RMK A01 T02480202  RH  076%=      5-min Rain = 0
KSW1 151318Z 10004KT 25/20 A3013 RMK A01 T02490202  RH  075%=      5-min Rain = 0
KSW1 151319Z 10004KT 25/20 A3013 RMK A01 T02490202  RH  075%=      5-min Rain = 0
KSW1 151320Z 10003KT 25/20 A3013 RMK A01 T02500203  RH  075%=      5-min Rain = 0
KSW1 151321Z 11004KT 25/20 A3013 RMK A01 T02520203  RH  075%=      5-min Rain = 0
KSW1 151322Z 11004KT 25/20 A3013 RMK A01 T02520203  RH  074%=      5-min Rain = 0
KSW1 151323Z 12005KT 25/20 A3013 RMK A01 T02530204  RH  074%=      5-min Rain = 0
KSW1 151324Z 11005KT 25/20 A3013 RMK A01 T02540204  RH  074%=      5-min Rain = 0
KSW1 151325Z 12005KT 25/20 A3013 RMK A01 T02530204  RH  074%=      5-min Rain = 0
KSW1 151326Z 12005KT 25/21 A3013 RMK A01 T02540205  RH  074%=      5-min Rain = 0
KSW1 151327Z 12006KT 26/21 A3013 RMK A01 T02550205  RH  073%=      5-min Rain = 0
KSW1 151328Z 13006KT 26/21 A3013 RMK A01 T02560205  RH  073%=      5-min Rain = 0
KSW1 151329Z 12005KT 26/21 A3013 RMK A01 T02570205  RH  073%=      5-min Rain = 0
KSW1 151330Z 12005KT 26/21 A3013 RMK A01 T02580205  RH  073%=      5-min Rain = 0
KSW1 151331Z 14005KT 26/21 A3013 RMK A01 T02590206  RH  073%=      5-min Rain = 0
KSW1 151332Z 14007KT 26/21 A3013 RMK A01 T02600206  RH  072%=      5-min Rain = 0
KSW1 151333Z 13007KT 26/21 A3013 RMK A01 T02600206  RH  072%=      5-min Rain = 0
KSW1 151334Z 13007KT 26/21 A3013 RMK A01 T02600206  RH  072%=      5-min Rain = 0
KSW1 151335Z 13006KT 26/21 A3013 RMK A01 T02610207  RH  072%=      5-min Rain = 0
KSW1 151336Z 14006KT 26/21 A3013 RMK A01 T02600207  RH  072%=      5-min Rain = 0
KSW1 151337Z 15007KT 26/21 A3013 RMK A01 T02610207  RH  072%=      5-min Rain = 0
KSW1 151338Z 14007KT 26/21 A3013 RMK A01 T02620207  RH  072%=      5-min Rain = 0
KSW1 151339Z 13007KT 26/21 A3013 RMK A01 T02620207  RH  072%=      5-min Rain = 0
KSW1 151340Z 14006KT 26/21 A3013 RMK A01 T02630208  RH  072%=      5-min Rain = 0
KSW1 151341Z 14006KT 27/21 A3013 RMK A01 T02650208  RH  071%=      5-min Rain = 0
KSW1 151342Z 14008KT 27/21 A3013 RMK A01 T02660208  RH  070%=      5-min Rain = 0
KSW1 151343Z 14010KT 27/21 A3013 RMK A01 T02660208  RH  070%=      5-min Rain = 0
KSW1 151344Z 13010KT 27/21 A3013 RMK A01 T02650208  RH  071%=      5-min Rain = 0
KSW1 151345Z 14008KT 26/21 A3013 RMK A01 T02640208  RH  071%=      5-min Rain = 0
KSW1 151346Z 13008KT 26/21 A3013 RMK A01 T02640208  RH  071%=      5-min Rain = 0
KSW1 151347Z 13006KT 26/21 A3013 RMK A01 T02640208  RH  071%=      5-min Rain = 0
KSW1 151348Z 14007KT 27/21 A3013 RMK A01 T02660208  RH  071%=      5-min Rain = 0
KSW1 151349Z 14006KT 27/21 A3013 RMK A01 T02660208  RH  070%=      5-min Rain = 0
KSW1 151350Z 13008KT 27/21 A3013 RMK A01 T02670208  RH  070%=      5-min Rain = 0
KSW1 151351Z 14007KT 27/21 A3013 RMK A01 T02670209  RH  070%=      5-min Rain = 0
KSW1 151352Z 15007KT 27/21 A3013 RMK A01 T02670208  RH  070%=      5-min Rain = 0
KSW1 151353Z 15009KT 27/21 A3014 RMK A01 T02670208  RH  070%=      5-min Rain = 0
KSW1 151354Z 15008KT 27/21 A3014 RMK A01 T02680208  RH  070%=      5-min Rain = 0
KSW1 151355Z 15010KT 27/21 A3014 RMK A01 T02680208  RH  070%=      5-min Rain = 0
KSW1 151356Z 15008KT 27/21 A3014 RMK A01 T02680207  RH  069%=      5-min Rain = 0
KSW1 151357Z 15008KT 27/21 A3014 RMK A01 T02680207  RH  070%=      5-min Rain = 0
KSW1 151358Z 14009KT 27/21 A3014 RMK A01 T02670207  RH  069%=      5-min Rain = 0
KSW1 151359Z 14010KT 27/21 A3014 RMK A01 T02670207  RH  069%=      5-min Rain = 0
KSW1 151400Z 13009KT 27/21 A3014 RMK A01 T02670207  RH  070%=      5-min Rain = 0
KSW1 151401Z 14008KT 27/21 A3014 RMK A01 T02670208  RH  070%=      5-min Rain = 0
KSW1 151402Z 15008KT 27/21 A3014 RMK A01 T02680208  RH  070%=      5-min Rain = 0
KSW1 151403Z 14006KT 27/21 A3014 RMK A01 T02680208  RH  070%=      5-min Rain = 0
KSW1 151404Z 13007KT 27/21 A3014 RMK A01 T02710208  RH  068%=      5-min Rain = 0
KSW1 151405Z 13008KT 27/21 A3014 RMK A01 T02720207  RH  068%=      5-min Rain = 0
KSW1 151406Z 14007KT 27/21 A3014 RMK A01 T02730208  RH  068%=      5-min Rain = 0
KSW1 151407Z 15006KT 27/21 A3014 RMK A01 T02730209  RH  068%=      5-min Rain = 0
KSW1 151408Z 14006KT 27/21 A3014 RMK A01 T02730209  RH  068%=      5-min Rain = 0
KSW1 151409Z 13006KT 27/21 A3014 RMK A01 T02740209  RH  067%=      5-min Rain = 0
KSW1 151410Z 15006KT 28/21 A3014 RMK A01 T02760210  RH  067%=      5-min Rain = 0
KSW1 151411Z 13007KT 28/21 A3014 RMK A01 T02780209  RH  066%=      5-min Rain = 0
KSW1 151412Z 14007KT 28/21 A3014 RMK A01 T02780208  RH  066%=      5-min Rain = 0
KSW1 151413Z 13006KT 28/21 A3014 RMK A01 T02780209  RH  066%=      5-min Rain = 0
KSW1 151414Z 14006KT 28/21 A3014 RMK A01 T02770209  RH  066%=      5-min Rain = 0
KSW1 151415Z 14006KT 28/21 A3014 RMK A01 T02770210  RH  067%=      5-min Rain = 0
KSW1 151416Z 15007KT 28/21 A3014 RMK A01 T02760209  RH  067%=      5-min Rain = 0
KSW1 151417Z 15008KT 28/21 A3014 RMK A01 T02760208  RH  067%=      5-min Rain = 0
KSW1 151418Z 15007KT 28/21 A3014 RMK A01 T02750207  RH  067%=      5-min Rain = 0
KSW1 151419Z 16008KT 28/21 A3014 RMK A01 T02750207  RH  067%=      5-min Rain = 0
KSW1 151420Z 16008KT 28/21 A3014 RMK A01 T02760207  RH  066%=      5-min Rain = 0
KSW1 151421Z 15008KT 28/21 A3014 RMK A01 T02750206  RH  066%=      5-min Rain = 0
KSW1 151422Z 15007KT 27/21 A3014 RMK A01 T02740207  RH  067%=      5-min Rain = 0
KSW1 151423Z 15007KT 28/21 A3014 RMK A01 T02750207  RH  066%=      5-min Rain = 0
KSW1 151424Z 15008KT 28/20 A3014 RMK A01 T02760203  RH  064%=      5-min Rain = 0
KSW1 151425Z 14006KT 28/20 A3014 RMK A01 T02770202  RH  064%=      5-min Rain = 0
KSW1 151426Z 13005KT 28/20 A3014 RMK A01 T02780203  RH  064%=      5-min Rain = 0
KSW1 151427Z 13006KT 28/21 A3014 RMK A01 T02800205  RH  064%=      5-min Rain = 0
KSW1 151428Z 12008KT 28/20 A3014 RMK A01 T02820204  RH  063%=      5-min Rain = 0
KSW1 151429Z 12007KT 28/20 A3014 RMK A01 T02830202  RH  061%=      5-min Rain = 0
KSW1 151430Z 13007KT 28/20 A3014 RMK A01 T02830204  RH  062%=      5-min Rain = 0
KSW1 151431Z 14006KT 28/21 A3014 RMK A01 T02820205  RH  063%=      5-min Rain = 0
KSW1 151432Z 13006KT 28/21 A3014 RMK A01 T02830206  RH  063%=      5-min Rain = 0
KSW1 151433Z 12008KT 28/20 A3014 RMK A01 T02830203  RH  062%=      5-min Rain = 0
KSW1 151434Z 13008KT 28/20 A3014 RMK A01 T02830202  RH  061%=      5-min Rain = 0
KSW1 151435Z 13007KT 28/20 A3014 RMK A01 T02830203  RH  062%=      5-min Rain = 0
KSW1 151436Z 13006KT 28/20 A3014 RMK A01 T02830204  RH  062%=      5-min Rain = 0
KSW1 151437Z 13008KT 28/20 A3014 RMK A01 T02830203  RH  062%=      5-min Rain = 0
KSW1 151438Z 14008KT 28/20 A3014 RMK A01 T02840203  RH  061%=      5-min Rain = 0
KSW1 151439Z 14006KT 28/20 A3014 RMK A01 T02840204  RH  062%=      5-min Rain = 0
KSW1 151440Z 14006KT 29/20 A3014 RMK A01 T02850204  RH  062%=      5-min Rain = 0
KSW1 151441Z 14007KT 29/20 A3014 RMK A01 T02850204  RH  061%=      5-min Rain = 0
KSW1 151442Z 14007KT 29/21 A3014 RMK A01 T02860205  RH  062%=      5-min Rain = 0
KSW1 151443Z 14008KT 29/21 A3014 RMK A01 T02860205  RH  062%=      5-min Rain = 0
KSW1 151444Z 14008KT 29/20 A3014 RMK A01 T02860203  RH  061%=      5-min Rain = 0
KSW1 151445Z 14006KT 29/20 A3014 RMK A01 T02850203  RH  061%=      5-min Rain = 0
KSW1 151446Z 14008KT 29/20 A3014 RMK A01 T02860203  RH  061%=      5-min Rain = 0
KSW1 151447Z 14007KT 29/20 A3014 RMK A01 T02870202  RH  060%=      5-min Rain = 0
KSW1 151448Z 15006KT 29/20 A3014 RMK A01 T02880203  RH  060%=      5-min Rain = 0
KSW1 151449Z 13007KT 29/20 A3014 RMK A01 T02880202  RH  060%=      5-min Rain = 0
KSW1 151450Z 11008KT 29/20 A3014 RMK A01 T02890200  RH  059%=      5-min Rain = 0
KSW1 151451Z 12010KT 29/20 A3014 RMK A01 T02910198  RH  057%=      5-min Rain = 0
KSW1 151452Z 13008KT 29/20 A3014 RMK A01 T02910201  RH  058%=      5-min Rain = 0
KSW1 151453Z 13008KT 29/20 A3014 RMK A01 T02910202  RH  058%=      5-min Rain = 0
KSW1 151454Z 11008KT 29/20 A3014 RMK A01 T02920200  RH  057%=      5-min Rain = 0
KSW1 151455Z 11009KT 29/20 A3014 RMK A01 T02920199  RH  057%=      5-min Rain = 0
KSW1 151456Z 12008KT 29/20 A3014 RMK A01 T02920199  RH  057%=      5-min Rain = 0
KSW1 151457Z 11009KT 29/20 A3014 RMK A01 T02920201  RH  058%=      5-min Rain = 0
KSW1 151458Z 12007KT 29/20 A3014 RMK A01 T02920201  RH  058%=      5-min Rain = 0
KSW1 151459Z 12008KT 30/20 A3014 RMK A01 T02950203  RH  058%=      5-min Rain = 0
KSW1 151500Z 12008KT 30/20 A3014 RMK A01 T02970201  RH  056%=      5-min Rain = 0
KSW1 151501Z 13007KT 30/20 A3014 RMK A01 T02950201  RH  057%=      5-min Rain = 0
KSW1 151502Z 14008KT 29/20 A3014 RMK A01 T02930201  RH  058%=      5-min Rain = 0
KSW1 151503Z 14008KT 30/20 A3014 RMK A01 T02950201  RH  057%=      5-min Rain = 0
KSW1 151504Z 15008KT 30/20 A3014 RMK A01 T02960202  RH  057%=      5-min Rain = 0
KSW1 151505Z 15007KT 30/20 A3014 RMK A01 T02970202  RH  057%=      5-min Rain = 0
KSW1 151506Z 12006KT 30/20 A3014 RMK A01 T02970203  RH  057%=      5-min Rain = 0
KSW1 151507Z 12008KT 30/20 A3014 RMK A01 T02970202  RH  056%=      5-min Rain = 0
KSW1 151508Z 13007KT 30/20 A3014 RMK A01 T02980202  RH  057%=      5-min Rain = 0
KSW1 151509Z 12006KT 30/20 A3014 RMK A01 T02970202  RH  057%=      5-min Rain = 0
KSW1 151510Z 13006KT 30/20 A3014 RMK A01 T02970203  RH  057%=      5-min Rain = 0
KSW1 151511Z 12007KT 30/20 A3014 RMK A01 T02990203  RH  056%=      5-min Rain = 0
KSW1 151512Z 11008KT 30/20 A3014 RMK A01 T03010200  RH  055%=      5-min Rain = 0
KSW1 151513Z 11008KT 30/20 A3014 RMK A01 T03010201  RH  055%=      5-min Rain = 0
KSW1 151514Z 10008KT 30/20 A3014 RMK A01 T03000203  RH  056%=      5-min Rain = 0
KSW1 151515Z 12008KT 30/20 A3014 RMK A01 T03000203  RH  056%=      5-min Rain = 0
KSW1 151516Z 12006KT 30/20 A3014 RMK A01 T03000202  RH  055%=      5-min Rain = 0
KSW1 151517Z 13009KT 30/20 A3014 RMK A01 T03010200  RH  055%=      5-min Rain = 0
KSW1 151518Z 12008KT 30/20 A3014 RMK A01 T03020200  RH  054%=      5-min Rain = 0
KSW1 151519Z 10007KT 30/20 A3014 RMK A01 T03020200  RH  054%=      5-min Rain = 0
KSW1 151520Z 11006KT 30/20 A3014 RMK A01 T02990199  RH  055%=      5-min Rain = 0
KSW1 151521Z 13006KT 30/20 A3014 RMK A01 T03000201  RH  055%=      5-min Rain = 0
KSW1 151522Z 13007KT 30/20 A3014 RMK A01 T03030203  RH  055%=      5-min Rain = 0
KSW1 151523Z 15007KT 30/20 A3014 RMK A01 T03040203  RH  055%=      5-min Rain = 0
KSW1 151524Z 14006KT 31/20 A3014 RMK A01 T03050201  RH  054%=      5-min Rain = 0
KSW1 151525Z 13007KT 31/20 A3014 RMK A01 T03060199  RH  053%=      5-min Rain = 0
KSW1 151526Z 14007KT 31/20 A3014 RMK A01 T03050197  RH  052%=      5-min Rain = 0
KSW1 151527Z 13008KT 31/19 A3014 RMK A01 T03050194  RH  052%=      5-min Rain = 0
KSW1 151528Z 13007KT 30/20 A3014 RMK A01 T03040196  RH  052%=      5-min Rain = 0
KSW1 151529Z 14005KT 30/19 A3014 RMK A01 T03030194  RH  052%=      5-min Rain = 0
KSW1 151530Z 13007KT 30/20 A3014 RMK A01 T03030198  RH  053%=      5-min Rain = 0
KSW1 151531Z 13007KT 30/20 A3014 RMK A01 T03030197  RH  053%=      5-min Rain = 0
KSW1 151532Z 14006KT 30/20 A3014 RMK A01 T03030195  RH  052%=      5-min Rain = 0
KSW1 151533Z 14005KT 30/20 A3014 RMK A01 T03020196  RH  053%=      5-min Rain = 0
KSW1 151534Z 15004KT 30/20 A3014 RMK A01 T03020196  RH  053%=      5-min Rain = 0
KSW1 151535Z 11004KT 30/20 A3014 RMK A01 T03020196  RH  053%=      5-min Rain = 0
KSW1 151536Z 10006KT 30/19 A3014 RMK A01 T03030192  RH  052%=      5-min Rain = 0
KSW1 151537Z 11006KT 30/19 A3014 RMK A01 T03030191  RH  051%=      5-min Rain = 0
KSW1 151538Z 12005KT 30/19 A3014 RMK A01 T03030190  RH  051%=      5-min Rain = 0
KSW1 151539Z 13006KT 30/19 A3014 RMK A01 T03030189  RH  050%=      5-min Rain = 0
KSW1 151540Z 12005KT 31/19 A3014 RMK A01 T03050188  RH  050%=      5-min Rain = 0
KSW1 151541Z 13006KT 31/19 A3014 RMK A01 T03070190  RH  050%=      5-min Rain = 0
KSW1 151542Z 12004KT 31/19 A3014 RMK A01 T03090189  RH  049%=      5-min Rain = 0
KSW1 151543Z 14007KT 31/19 A3014 RMK A01 T03100194  RH  050%=      5-min Rain = 0
KSW1 151544Z 13006KT 31/19 A3014 RMK A01 T03100192  RH  050%=      5-min Rain = 0
KSW1 151545Z 13007KT 31/19 A3014 RMK A01 T03090194  RH  050%=      5-min Rain = 0
KSW1 151546Z 13006KT 31/20 A3014 RMK A01 T03100196  RH  051%=      5-min Rain = 0
KSW1 151547Z 15006KT 31/20 A3014 RMK A01 T03140197  RH  050%=      5-min Rain = 0
KSW1 151548Z 15005KT 32/20 A3014 RMK A01 T03150196  RH  049%=      5-min Rain = 0
KSW1 151549Z 17005KT 31/19 A3014 RMK A01 T03140193  RH  049%=      5-min Rain = 0
KSW1 151550Z 13007KT 31/19 A3014 RMK A01 T03140190  RH  048%=      5-min Rain = 0
KSW1 151551Z 12005KT 32/19 A3014 RMK A01 T03150191  RH  048%=      5-min Rain = 0
KSW1 151552Z 16006KT 32/19 A3014 RMK A01 T03150192  RH  048%=      5-min Rain = 0
KSW1 151553Z 17007KT 32/19 A3014 RMK A01 T03150193  RH  048%=      5-min Rain = 0
KSW1 151554Z 16008KT 31/19 A3014 RMK A01 T03140194  RH  049%=      5-min Rain = 0
KSW1 151555Z 15007KT 32/20 A3014 RMK A01 T03160196  RH  049%=      5-min Rain = 0
KSW1 151556Z 15006KT 31/20 A3014 RMK A01 T03140197  RH  050%=      5-min Rain = 0
KSW1 151557Z 13005KT 31/20 A3014 RMK A01 T03130196  RH  050%=      5-min Rain = 0
KSW1 151558Z 13005KT 31/20 A3014 RMK A01 T03130197  RH  050%=      5-min Rain = 0
KSW1 151559Z 13006KT 31/19 A3014 RMK A01 T03140193  RH  049%=      5-min Rain = 0
KSW1 151600Z 13005KT 32/19 A3014 RMK A01 T03150189  RH  047%=      5-min Rain = 0
KSW1 151601Z 14003KT 31/19 A3014 RMK A01 T03140186  RH  046%=      5-min Rain = 0
KSW1 151602Z 09004KT 31/19 A3014 RMK A01 T03140186  RH  047%=      5-min Rain = 0
KSW1 151603Z 07003KT 32/18 A3014 RMK A01 T03150184  RH  046%=      5-min Rain = 0
KSW1 151604Z 07003KT 32/19 A3014 RMK A01 T03170186  RH  046%=      5-min Rain = 0
KSW1 151605Z 05002KT 32/19 A3014 RMK A01 T03160187  RH  046%=      5-min Rain = 0
KSW1 151606Z 03002KT 32/19 A3014 RMK A01 T03150187  RH  047%=      5-min Rain = 0
KSW1 151607Z 06002KT 32/19 A3014 RMK A01 T03160187  RH  046%=      5-min Rain = 0
KSW1 151608Z 09002KT 32/19 A3015 RMK A01 T03180185  RH  045%=      5-min Rain = 0
KSW1 151609Z 15002KT 32/19 A3015 RMK A01 T03200185  RH  045%=      5-min Rain = 0
KSW1 151610Z 14001KT 32/19 A3015 RMK A01 T03200186  RH  045%=      5-min Rain = 0
KSW1 151611Z 20002KT 32/19 A3014 RMK A01 T03190188  RH  046%=      5-min Rain = 0
KSW1 151612Z 20002KT 32/19 A3014 RMK A01 T03180191  RH  047%=      5-min Rain = 0
KSW1 151613Z 11005KT 32/19 A3014 RMK A01 T03190191  RH  046%=      5-min Rain = 0
KSW1 151614Z 11006KT 33/19 A3014 RMK A01 T03250191  RH  045%=      5-min Rain = 0
KSW1 151615Z 12005KT 33/19 A3014 RMK A01 T03260189  RH  044%=      5-min Rain = 0
KSW1 151616Z 14005KT 32/19 A3014 RMK A01 T03230189  RH  045%=      5-min Rain = 0
KSW1 151617Z 13007KT 32/19 A3014 RMK A01 T03210189  RH  046%=      5-min Rain = 0
KSW1 151618Z 12008KT 32/19 A3014 RMK A01 T03210189  RH  046%=      5-min Rain = 0
KSW1 151619Z 12007KT 32/19 A3014 RMK A01 T03200189  RH  046%=      5-min Rain = 0
KSW1 151620Z 12006KT 32/19 A3014 RMK A01 T03230188  RH  045%=      5-min Rain = 0
KSW1 151621Z 10006KT 32/19 A3014 RMK A01 T03220189  RH  045%=      5-min Rain = 0
KSW1 151622Z 10005KT 32/19 A3014 RMK A01 T03240188  RH  045%=      5-min Rain = 0
KSW1 151623Z 09004KT 32/19 A3014 RMK A01 T03240185  RH  044%=      5-min Rain = 0
KSW1 151624Z 08003KT 32/18 A3014 RMK A01 T03200183  RH  044%=      5-min Rain = 0
KSW1 151625Z 08001KT 32/18 A3014 RMK A01 T03180184  RH  045%=      5-min Rain = 0
KSW1 151626Z 17001KT 32/19 A3014 RMK A01 T03180185  RH  045%=      5-min Rain = 0
KSW1 151627Z 17004KT 32/19 A3014 RMK A01 T03180187  RH  046%=      5-min Rain = 0
KSW1 151628Z 18003KT 32/19 A3014 RMK A01 T03210189  RH  046%=      5-min Rain = 0
KSW1 151629Z 21003KT 32/19 A3014 RMK A01 T03240189  RH  045%=      5-min Rain = 0
KSW1 151630Z 23005KT 33/19 A3014 RMK A01 T03250190  RH  045%=      5-min Rain = 0
KSW1 151631Z 22003KT 33/19 A3014 RMK A01 T03250190  RH  045%=      5-min Rain = 0
KSW1 151632Z 20005KT 32/19 A3014 RMK A01 T03240190  RH  045%=      5-min Rain = 0
KSW1 151633Z 14008KT 33/19 A3014 RMK A01 T03260192  RH  045%=      5-min Rain = 0
KSW1 151634Z 12008KT 33/19 A3014 RMK A01 T03270192  RH  045%=      5-min Rain = 0
KSW1 151635Z 11007KT 32/19 A3014 RMK A01 T03240191  RH  046%=      5-min Rain = 0
KSW1 151636Z 12007KT 32/19 A3014 RMK A01 T03230191  RH  046%=      5-min Rain = 0
KSW1 151637Z 11005KT 32/19 A3014 RMK A01 T03220191  RH  046%=      5-min Rain = 0
KSW1 151638Z 10003KT 32/19 A3014 RMK A01 T03200190  RH  046%=      5-min Rain = 0
KSW1 151639Z 09001KT 32/19 A3014 RMK A01 T03200190  RH  046%=      5-min Rain = 0
KSW1 151640Z 15004KT 32/19 A3014 RMK A01 T03200191  RH  046%=      5-min Rain = 0
KSW1 151641Z 18007KT 32/19 A3014 RMK A01 T03230191  RH  045%=      5-min Rain = 0
KSW1 151642Z 17006KT 33/19 A3014 RMK A01 T03250190  RH  045%=      5-min Rain = 0
KSW1 151643Z 16006KT 33/19 A3014 RMK A01 T03280189  RH  044%=      5-min Rain = 0
KSW1 151644Z 18007KT 33/19 A3014 RMK A01 T03280189  RH  044%=      5-min Rain = 0
KSW1 151645Z 19005KT 33/19 A3014 RMK A01 T03250188  RH  044%=      5-min Rain = 0
KSW1 151646Z 19005KT 32/19 A3014 RMK A01 T03220188  RH  045%=      5-min Rain = 0
KSW1 151647Z 17003KT 32/19 A3014 RMK A01 T03210189  RH  046%=      5-min Rain = 0
KSW1 151648Z 18003KT 32/19 A3014 RMK A01 T03200189  RH  046%=      5-min Rain = 0
KSW1 151649Z 20005KT 32/19 A3014 RMK A01 T03190188  RH  046%=      5-min Rain = 0
KSW1 151650Z 20005KT 32/19 A3014 RMK A01 T03190189  RH  046%=      5-min Rain = 0
KSW1 151651Z 18005KT 32/19 A3013 RMK A01 T03180191  RH  047%=      5-min Rain = 0
KSW1 151652Z 17004KT 32/19 A3014 RMK A01 T03170190  RH  047%=      5-min Rain = 0
KSW1 151653Z 19005KT 32/19 A3014 RMK A01 T03170190  RH  047%=      5-min Rain = 0
KSW1 151654Z 15006KT 32/19 A3014 RMK A01 T03170190  RH  047%=      5-min Rain = 0
KSW1 151655Z 17007KT 32/19 A3014 RMK A01 T03180192  RH  047%=      5-min Rain = 0
KSW1 151656Z 16009KT 32/19 A3014 RMK A01 T03200192  RH  047%=      5-min Rain = 0
KSW1 151657Z 16008KT 32/19 A3014 RMK A01 T03200193  RH  047%=      5-min Rain = 0
KSW1 151658Z 16008KT 32/19 A3014 RMK A01 T03190192  RH  047%=      5-min Rain = 0
KSW1 151659Z 16008KT 32/19 A3014 RMK A01 T03180193  RH  047%=      5-min Rain = 0
KSW1 151700Z 16009KT 32/19 A3014 RMK A01 T03180191  RH  047%=      5-min Rain = 0
KSW1 151701Z 16006KT 32/19 A3014 RMK A01 T03180192  RH  047%=      5-min Rain = 0
KSW1 151702Z 16005KT 32/19 A3014 RMK A01 T03170193  RH  048%=      5-min Rain = 0
KSW1 151703Z 16004KT 32/19 A3014 RMK A01 T03190191  RH  047%=      5-min Rain = 0
KSW1 151704Z 14006KT 32/19 A3014 RMK A01 T03200193  RH  047%=      5-min Rain = 0
KSW1 151705Z 10006KT 33/19 A3014 RMK A01 T03250192  RH  045%=      5-min Rain = 0
KSW1 151706Z 13004KT 33/19 A3014 RMK A01 T03260191  RH  045%=      5-min Rain = 0
KSW1 151707Z 16005KT 33/19 A3014 RMK A01 T03250191  RH  045%=      5-min Rain = 0
KSW1 151708Z 13004KT 33/19 A3014 RMK A01 T03260191  RH  045%=      5-min Rain = 0
KSW1 151709Z 14003KT 33/19 A3013 RMK A01 T03260191  RH  045%=      5-min Rain = 0
KSW1 151710Z 18004KT 33/19 A3013 RMK A01 T03250191  RH  045%=      5-min Rain = 0
KSW1 151711Z 19009KT 33/19 A3013 RMK A01 T03250192  RH  045%=      5-min Rain = 0
KSW1 151712Z 19007KT 33/19 A3013 RMK A01 T03260193  RH  045%=      5-min Rain = 0
KSW1 151713Z 17007KT 33/19 A3013 RMK A01 T03260193  RH  046%=      5-min Rain = 0
KSW1 151714Z 18008KT 33/19 A3013 RMK A01 T03280193  RH  045%=      5-min Rain = 0
KSW1 151715Z 18006KT 33/19 A3013 RMK A01 T03260193  RH  046%=      5-min Rain = 0
KSW1 151716Z 21005KT 32/19 A3013 RMK A01 T03240193  RH  046%=      5-min Rain = 0
KSW1 151717Z 23004KT 32/19 A3013 RMK A01 T03220192  RH  046%=      5-min Rain = 0
KSW1 151718Z 24005KT 32/19 A3013 RMK A01 T03200192  RH  047%=      5-min Rain = 0
KSW1 151719Z 24005KT 32/19 A3013 RMK A01 T03180192  RH  047%=      5-min Rain = 0
KSW1 151720Z 26005KT 32/19 A3013 RMK A01 T03180193  RH  047%=      5-min Rain = 0
KSW1 151721Z 26006KT 32/19 A3013 RMK A01 T03180193  RH  047%=      5-min Rain = 0
KSW1 151722Z 26006KT 32/19 A3013 RMK A01 T03210193  RH  047%=      5-min Rain = 0
KSW1 151723Z 29006KT 33/19 A3013 RMK A01 T03250194  RH  046%=      5-min Rain = 0
KSW1 151724Z 27006KT 33/19 A3013 RMK A01 T03270194  RH  046%=      5-min Rain = 0
KSW1 151725Z 26004KT 33/19 A3013 RMK A01 T03250194  RH  046%=      5-min Rain = 0
KSW1 151726Z 27003KT 32/19 A3013 RMK A01 T03240192  RH  046%=      5-min Rain = 0
KSW1 151727Z 27003KT 32/19 A3013 RMK A01 T03230194  RH  046%=      5-min Rain = 0
KSW1 151728Z 22003KT 33/19 A3013 RMK A01 T03260194  RH  046%=      5-min Rain = 0
KSW1 151729Z 22005KT 33/19 A3013 RMK A01 T03310194  RH  044%=      5-min Rain = 0
KSW1 151730Z 21005KT 33/19 A3013 RMK A01 T03320190  RH  043%=      5-min Rain = 0
KSW1 151731Z 22003KT 33/19 A3013 RMK A01 T03280189  RH  044%=      5-min Rain = 0
KSW1 151732Z 22004KT 33/19 A3013 RMK A01 T03250190  RH  045%=      5-min Rain = 0
KSW1 151733Z 21005KT 33/19 A3013 RMK A01 T03260190  RH  044%=      5-min Rain = 0
KSW1 151734Z 19003KT 33/19 A3013 RMK A01 T03280191  RH  044%=      5-min Rain = 0
KSW1 151735Z 19003KT 33/19 A3013 RMK A01 T03270191  RH  045%=      5-min Rain = 0
KSW1 151736Z 15002KT 33/19 A3013 RMK A01 T03260191  RH  045%=      5-min Rain = 0
KSW1 151737Z 14000KT 33/19 A3013 RMK A01 T03260191  RH  045%=      5-min Rain = 0
KSW1 151738Z 08000KT 33/19 A3012 RMK A01 T03250191  RH  045%=      5-min Rain = 0
KSW1 151739Z 32002KT 32/19 A3012 RMK A01 T03240190  RH  045%=      5-min Rain = 0
KSW1 151740Z 32004KT 33/19 A3012 RMK A01 T03250189  RH  044%=      5-min Rain = 0
KSW1 151741Z 30002KT 33/19 A3012 RMK A01 T03290190  RH  044%=      5-min Rain = 0
KSW1 151742Z 33003KT 33/19 A3012 RMK A01 T03330189  RH  043%=      5-min Rain = 0
KSW1 151743Z 33006KT 34/19 A3012 RMK A01 T03350188  RH  042%=      5-min Rain = 0
KSW1 151744Z 32004KT 34/19 A3012 RMK A01 T03350187  RH  041%=      5-min Rain = 0
KSW1 151745Z 33005KT 33/19 A3012 RMK A01 T03320187  RH  042%=      5-min Rain = 0
KSW1 151746Z 31004KT 33/19 A3012 RMK A01 T03300187  RH  043%=      5-min Rain = 0
KSW1 151747Z 31004KT 33/19 A3012 RMK A01 T03280186  RH  043%=      5-min Rain = 0
KSW1 151748Z 30005KT 33/19 A3012 RMK A01 T03260186  RH  044%=      5-min Rain = 0
KSW1 151749Z 29003KT 33/19 A3012 RMK A01 T03250187  RH  044%=      5-min Rain = 0
KSW1 151750Z 32004KT 33/19 A3012 RMK A01 T03260187  RH  044%=      5-min Rain = 0
KSW1 151751Z 32005KT 33/19 A3012 RMK A01 T03260188  RH  044%=      5-min Rain = 0
KSW1 151752Z 33005KT 33/19 A3012 RMK A01 T03260188  RH  044%=      5-min Rain = 0
KSW1 151753Z 33005KT 33/19 A3012 RMK A01 T03260188  RH  044%=      5-min Rain = 0
KSW1 151754Z 33005KT 33/19 A3012 RMK A01 T03250188  RH  044%=      5-min Rain = 0
KSW1 151755Z 33002KT 32/19 A3012 RMK A01 T03230188  RH  045%=      5-min Rain = 0
KSW1 151756Z 31001KT 32/19 A3012 RMK A01 T03220188  RH  045%=      5-min Rain = 0
KSW1 151757Z 32002KT 32/19 A3012 RMK A01 T03230188  RH  045%=      5-min Rain = 0
KSW1 151758Z 31005KT 32/19 A3011 RMK A01 T03240189  RH  045%=      5-min Rain = 0
KSW1 151759Z 28003KT 33/19 A3011 RMK A01 T03250188  RH  044%=      5-min Rain = 0
KSW1 151800Z 32003KT 33/19 A3011 RMK A01 T03260188  RH  044%=      5-min Rain = 0
KSW1 151801Z 35003KT 33/19 A3011 RMK A01 T03290190  RH  044%=      5-min Rain = 0
KSW1 151802Z 03001KT 33/19 A3011 RMK A01 T03310189  RH  043%=      5-min Rain = 0
KSW1 151803Z 26001KT 33/19 A3011 RMK A01 T03330190  RH  043%=      5-min Rain = 0
KSW1 151804Z 22002KT 34/19 A3011 RMK A01 T03350189  RH  042%=      5-min Rain = 0
KSW1 151805Z 24002KT 33/19 A3011 RMK A01 T03330189  RH  042%=      5-min Rain = 0
KSW1 151806Z 21004KT 33/19 A3011 RMK A01 T03330186  RH  042%=      5-min Rain = 0
KSW1 151807Z 17004KT 33/19 A3011 RMK A01 T03340186  RH  042%=      5-min Rain = 0
KSW1 151808Z 15002KT 33/19 A3011 RMK A01 T03320186  RH  042%=      5-min Rain = 0
KSW1 151809Z 17002KT 33/19 A3011 RMK A01 T03310186  RH  042%=      5-min Rain = 0
KSW1 151810Z 26005KT 33/19 A3011 RMK A01 T03330187  RH  042%=      5-min Rain = 0
KSW1 151811Z 28004KT 34/18 A3011 RMK A01 T03350184  RH  041%=      5-min Rain = 0
KSW1 151812Z 29004KT 33/19 A3011 RMK A01 T03340185  RH  041%=      5-min Rain = 0
KSW1 151813Z 33004KT 34/18 A3011 RMK A01 T03350184  RH  041%=      5-min Rain = 0
KSW1 151814Z 34005KT 34/18 A301 RMK A01 T03350184  RH  041%=      5-min Rain = 0
KSW1 151815Z 32005KT 34/18 A301 RMK A01 T03370184  RH  040%=      5-min Rain = 0
KSW1 151816Z 29005KT 34/19 A3011 RMK A01 T03380186  RH  041%=      5-min Rain = 0
KSW1 151817Z 29005KT 34/19 A3011 RMK A01 T03370188  RH  041%=      5-min Rain = 0
KSW1 151818Z 27005KT 34/18 A3011 RMK A01 T03360183  RH  040%=      5-min Rain = 0
KSW1 151819Z 26004KT 34/18 A301 RMK A01 T03360176  RH  039%=      5-min Rain = 0
KSW1 151820Z 22002KT 34/18 A301 RMK A01 T03350178  RH  039%=      5-min Rain = 0
KSW1 151821Z 21003KT 34/18 A301 RMK A01 T03350177  RH  039%=      5-min Rain = 0
KSW1 151822Z 28004KT 34/17 A301 RMK A01 T03350173  RH  038%=      5-min Rain = 0
KSW1 151823Z 32003KT 34/17 A301 RMK A01 T03370173  RH  038%=      5-min Rain = 0
KSW1 151824Z 32001KT 34/17 A301 RMK A01 T03360174  RH  038%=      5-min Rain = 0
KSW1 151825Z 23001KT 34/17 A301 RMK A01 T03360172  RH  038%=      5-min Rain = 0
KSW1 151826Z 19004KT 34/17 A301 RMK A01 T03380172  RH  037%=      5-min Rain = 0
KSW1 151827Z 18005KT 34/18 A301 RMK A01 T03370176  RH  038%=      5-min Rain = 0
KSW1 151828Z 18004KT 34/18 A301 RMK A01 T03370177  RH  039%=      5-min Rain = 0
KSW1 151829Z 20003KT 34/18 A301 RMK A01 T03370176  RH  038%=      5-min Rain = 0
KSW1 151830Z 31005KT 34/18 A301 RMK A01 T03390177  RH  038%=      5-min Rain = 0
KSW1 151831Z 30004KT 34/18 A301 RMK A01 T03400177  RH  038%=      5-min Rain = 0
KSW1 151832Z 30003KT 34/18 A301 RMK A01 T03390177  RH  038%=      5-min Rain = 0
KSW1 151833Z 26003KT 34/18 A3009 RMK A01 T03400178  RH  038%=      5-min Rain = 0
KSW1 151834Z 29003KT 34/18 A3009 RMK A01 T03400179  RH  039%=      5-min Rain = 0
KSW1 151835Z 18004KT 34/18 A3009 RMK A01 T03400178  RH  038%=      5-min Rain = 0
KSW1 151836Z 17004KT 34/18 A3009 RMK A01 T03370175  RH  038%=      5-min Rain = 0
KSW1 151837Z 19002KT 34/18 A3009 RMK A01 T03350176  RH  039%=      5-min Rain = 0
KSW1 151838Z 28002KT 34/18 A3009 RMK A01 T03390179  RH  039%=      5-min Rain = 0
KSW1 151839Z 30004KT 34/18 A3009 RMK A01 T03430181  RH  038%=      5-min Rain = 0
KSW1 151840Z 00004G9KT 35/18 A3009 RMK A01 T03510183  RH  037%=      5-min Rain = 0
KSW1 151841Z 29003KT 36/18 A3009 RMK A01 T03560182  RH  036%=      5-min Rain = 0
KSW1 151842Z 30003KT 35/18 A3008 RMK A01 T03540180  RH  036%=      5-min Rain = 0
KSW1 151843Z 26001KT 35/18 A3008 RMK A01 T03500181  RH  037%=      5-min Rain = 0
KSW1 151844Z 23002KT 35/18 A3008 RMK A01 T03500180  RH  037%=      5-min Rain = 0
KSW1 151845Z 22005KT 35/18 A3008 RMK A01 T03510179  RH  036%=      5-min Rain = 0
KSW1 151846Z 20004KT 35/18 A3008 RMK A01 T03500179  RH  036%=      5-min Rain = 0
KSW1 151847Z 20006G11KT 35/18 A3008 RMK A01 T03500179  RH  036%=      5-min Rain = 0
KSW1 151848Z 18010KT 35/18 A3007 RMK A01 T03490179  RH  037%=      5-min Rain = 0
KSW1 151849Z 18007KT 35/18 A3007 RMK A01 T03460176  RH  037%=      5-min Rain = 0
KSW1 151850Z 17007KT 34/18 A3007 RMK A01 T03430177  RH  037%=      5-min Rain = 0
KSW1 151851Z 19004KT 34/18 A3007 RMK A01 T03410176  RH  038%=      5-min Rain = 0
KSW1 151852Z 19002KT 34/18 A3007 RMK A01 T03380176  RH  038%=      5-min Rain = 0
KSW1 151853Z 19002KT 34/18 A3007 RMK A01 T03380176  RH  038%=      5-min Rain = 0
KSW1 151854Z 22002KT 34/18 A3007 RMK A01 T03390176  RH  038%=      5-min Rain = 0
KSW1 151855Z 30002KT 34/18 A3007 RMK A01 T03420177  RH  038%=      5-min Rain = 0
KSW1 151856Z 13003KT 34/18 A3007 RMK A01 T03430177  RH  037%=      5-min Rain = 0
KSW1 151857Z 12004KT 35/18 A3007 RMK A01 T03470176  RH  036%=      5-min Rain = 0
KSW1 151858Z 11006KT 35/18 A3007 RMK A01 T03490175  RH  036%=      5-min Rain = 0
KSW1 151859Z 11003KT 35/18 A3007 RMK A01 T03500175  RH  035%=      5-min Rain = 0
KSW1 151900Z 14003KT 35/18 A3007 RMK A01 T03510176  RH  036%=      5-min Rain = 0
KSW1 151901Z 22003KT 35/18 A3007 RMK A01 T03510177  RH  036%=      5-min Rain = 0
KSW1 151902Z 24005KT 35/18 A3007 RMK A01 T03510177  RH  036%=      5-min Rain = 0
KSW1 151903Z 25002KT 35/18 A3007 RMK A01 T03490178  RH  036%=      5-min Rain = 0
KSW1 151904Z 31003KT 35/18 A3007 RMK A01 T03480178  RH  037%=      5-min Rain = 0
KSW1 151905Z 33002KT 35/18 A3006 RMK A01 T03480177  RH  036%=      5-min Rain = 0
KSW1 151906Z 23004KT 35/18 A3006 RMK A01 T03460178  RH  037%=      5-min Rain = 0
KSW1 151907Z 19007KT 35/18 A3006 RMK A01 T03470180  RH  037%=      5-min Rain = 0
KSW1 151908Z 19008KT 35/18 A3006 RMK A01 T03480182  RH  037%=      5-min Rain = 0
KSW1 151909Z 17006KT 35/18 A3006 RMK A01 T03470181  RH  038%=      5-min Rain = 0
KSW1 151910Z 18005KT 35/18 A3006 RMK A01 T03470180  RH  037%=      5-min Rain = 0
KSW1 151911Z 15007KT 35/18 A3006 RMK A01 T03480180  RH  037%=      5-min Rain = 0
KSW1 151912Z 15004KT 35/18 A3006 RMK A01 T03480178  RH  037%=      5-min Rain = 0
KSW1 151913Z 16005KT 35/18 A3006 RMK A01 T03480178  RH  037%=      5-min Rain = 0
KSW1 151914Z 19007KT 35/18 A3006 RMK A01 T03480179  RH  037%=      5-min Rain = 0
KSW1 151915Z 23009KT 35/18 A3006 RMK A01 T03500177  RH  036%=      5-min Rain = 0
KSW1 151916Z 29007KT 35/18 A3006 RMK A01 T03530178  RH  036%=      5-min Rain = 0
KSW1 151917Z 28006KT 36/18 A3006 RMK A01 T03610180  RH  035%=      5-min Rain = 0
KSW1 151918Z 31009KT 37/18 A3006 RMK A01 T03660180  RH  034%=      5-min Rain = 0
KSW1 151919Z 26004KT 36/18 A3006 RMK A01 T03620179  RH  034%=      5-min Rain = 0
KSW1 151920Z 15005KT 36/18 A3007 RMK A01 T03560180  RH  035%=      5-min Rain = 0
KSW1 151921Z 15005KT 35/18 A3006 RMK A01 T03530179  RH  036%=      5-min Rain = 0
KSW1 151922Z 13006KT 35/18 A3006 RMK A01 T03480178  RH  037%=      5-min Rain = 0
KSW1 151923Z 12008KT 35/18 A3006 RMK A01 T03460177  RH  037%=      5-min Rain = 0
KSW1 151924Z 13008KT 34/18 A3006 RMK A01 T03430178  RH  037%=      5-min Rain = 0
KSW1 151925Z 13007KT 35/18 A3006 RMK A01 T03450177  RH  037%=      5-min Rain = 0
KSW1 151926Z 13007KT 34/18 A3006 RMK A01 T03440177  RH  037%=      5-min Rain = 0
KSW1 151927Z 14003KT 34/18 A3006 RMK A01 T03420178  RH  038%=      5-min Rain = 0
KSW1 151928Z 13004KT 34/18 A3006 RMK A01 T03410178  RH  038%=      5-min Rain = 0
KSW1 151929Z 12007KT 34/18 A3006 RMK A01 T03410179  RH  038%=      5-min Rain = 0
KSW1 151930Z 11007KT 34/18 A3006 RMK A01 T03410180  RH  038%=      5-min Rain = 0
KSW1 151931Z 14005KT 34/18 A3006 RMK A01 T03400180  RH  039%=      5-min Rain = 0
KSW1 151932Z 16008KT 34/18 A3006 RMK A01 T03390181  RH  039%=      5-min Rain = 0
KSW1 151933Z 17006KT 34/18 A3006 RMK A01 T03390181  RH  039%=      5-min Rain = 0
KSW1 151934Z 16008KT 34/18 A3006 RMK A01 T03390181  RH  039%=      5-min Rain = 0
KSW1 151935Z 16010KT 34/18 A3006 RMK A01 T03400181  RH  039%=      5-min Rain = 0
KSW1 151936Z 15008KT 34/18 A3006 RMK A01 T03400181  RH  039%=      5-min Rain = 0
KSW1 151937Z 17008KT 34/18 A3006 RMK A01 T03380179  RH  039%=      5-min Rain = 0
KSW1 151938Z 18008KT 34/18 A3005 RMK A01 T03380178  RH  039%=      5-min Rain = 0
KSW1 151939Z 17007KT 34/18 A3005 RMK A01 T03380179  RH  039%=      5-min Rain = 0
KSW1 151940Z 14007KT 34/18 A3005 RMK A01 T03390180  RH  039%=      5-min Rain = 0
KSW1 151941Z 13005KT 34/18 A3005 RMK A01 T03380180  RH  039%=      5-min Rain = 0
KSW1 151942Z 13005KT 34/18 A3005 RMK A01 T03370180  RH  040%=      5-min Rain = 0
KSW1 151943Z 14003KT 34/18 A3005 RMK A01 T03360180  RH  040%=      5-min Rain = 0
KSW1 151944Z 22005KT 34/18 A3005 RMK A01 T03360180  RH  040%=      5-min Rain = 0
KSW1 151945Z 22005KT 34/18 A3005 RMK A01 T03360181  RH  040%=      5-min Rain = 0
KSW1 151946Z 22004KT 33/18 A3005 RMK A01 T03340181  RH  040%=      5-min Rain = 0
KSW1 151947Z 17004KT 33/18 A3005 RMK A01 T03340181  RH  040%=      5-min Rain = 0
KSW1 151948Z 16008KT 34/18 A3005 RMK A01 T03360182  RH  040%=      5-min Rain = 0
KSW1 151949Z 16012KT 34/18 A3004 RMK A01 T03380183  RH  040%=      5-min Rain = 0
KSW1 151950Z 18012KT 34/18 A3004 RMK A01 T03410184  RH  039%=      5-min Rain = 0
KSW1 151951Z 18013KT 34/18 A3004 RMK A01 T03440184  RH  039%=      5-min Rain = 0
KSW1 151952Z 18012KT 35/18 A3004 RMK A01 T03480182  RH  038%=      5-min Rain = 0
KSW1 151953Z 19012KT 35/18 A3004 RMK A01 T03490182  RH  037%=      5-min Rain = 0
KSW1 151954Z 19010KT 35/18 A3004 RMK A01 T03480182  RH  038%=      5-min Rain = 0
KSW1 151955Z 16010KT 35/18 A3003 RMK A01 T03500182  RH  037%=      5-min Rain = 0
KSW1 151956Z 15012G17KT 35/18 A3003 RMK A01 T03520182  RH  037%=      5-min Rain = 0
KSW1 151957Z 15013KT 35/18 A3003 RMK A01 T03530180  RH  036%=      5-min Rain = 0
KSW1 151958Z 16012KT 35/18 A3003 RMK A01 T03520181  RH  037%=      5-min Rain = 0
KSW1 151959Z 17014KT 35/18 A3003 RMK A01 T03510182  RH  037%=      5-min Rain = 0
KSW1 152000Z 18012KT 35/18 A3003 RMK A01 T03500181  RH  037%=      5-min Rain = 0
KSW1 152001Z 18014KT 35/18 A3003 RMK A01 T03510179  RH  036%=      5-min Rain = 0
KSW1 152002Z 19014KT 36/18 A3003 RMK A01 T03550180  RH  036%=      5-min Rain = 0
KSW1 152003Z 19013KT 35/18 A3003 RMK A01 T03540178  RH  035%=      5-min Rain = 0
KSW1 152004Z 17014KT 35/18 A3003 RMK A01 T03510178  RH  036%=      5-min Rain = 0
KSW1 152005Z 17011KT 35/18 A3003 RMK A01 T03510178  RH  036%=      5-min Rain = 0
KSW1 152006Z 15011KT 35/18 A3003 RMK A01 T03510177  RH  036%=      5-min Rain = 0
KSW1 152007Z 17011KT 35/18 A3003 RMK A01 T03500176  RH  036%=      5-min Rain = 0
KSW1 152008Z 16008KT 35/18 A3003 RMK A01 T03470175  RH  036%=      5-min Rain = 0
KSW1 152009Z 15007KT 35/18 A3003 RMK A01 T03450176  RH  037%=      5-min Rain = 0
KSW1 152010Z 16005KT 35/18 A3003 RMK A01 T03480176  RH  036%=      5-min Rain = 0
KSW1 152011Z 17007KT 35/18 A3003 RMK A01 T03500175  RH  036%=      5-min Rain = 0
KSW1 152012Z 15010KT 35/18 A3003 RMK A01 T03490176  RH  036%=      5-min Rain = 0
KSW1 152013Z 16010KT 35/17 A3003 RMK A01 T03500174  RH  035%=      5-min Rain = 0
KSW1 152014Z 14007KT 35/17 A3003 RMK A01 T03510173  RH  035%=      5-min Rain = 0
KSW1 152015Z 17008KT 35/17 A3003 RMK A01 T03520174  RH  035%=      5-min Rain = 0
KSW1 152016Z 16008KT 35/17 A3003 RMK A01 T03520172  RH  035%=      5-min Rain = 0
KSW1 152017Z 15007KT 35/17 A3003 RMK A01 T03500173  RH  035%=      5-min Rain = 0
KSW1 152018Z 13004KT 35/17 A3003 RMK A01 T03500173  RH  035%=      5-min Rain = 0
KSW1 152019Z 15006KT 35/17 A3003 RMK A01 T03490173  RH  035%=      5-min Rain = 0
KSW1 152020Z 17007KT 35/17 A3003 RMK A01 T03500171  RH  035%=      5-min Rain = 0
KSW1 152021Z 18002KT 35/17 A3003 RMK A01 T03490171  RH  035%=      5-min Rain = 0
KSW1 152022Z 10004G9KT 35/17 A3003 RMK A01 T03470171  RH  035%=      5-min Rain = 0
KSW1 152023Z 10006KT 35/17 A3003 RMK A01 T03460171  RH  036%=      5-min Rain = 0
KSW1 152024Z 19005KT 35/17 A3003 RMK A01 T03460173  RH  036%=      5-min Rain = 0
KSW1 152025Z 21004KT 35/17 A3003 RMK A01 T03490174  RH  036%=      5-min Rain = 0
KSW1 152026Z 18007KT 35/18 A3003 RMK A01 T03510175  RH  035%=      5-min Rain = 0
KSW1 152027Z 17011KT 35/17 A3003 RMK A01 T03530173  RH  034%=      5-min Rain = 0
KSW1 152028Z 17008KT 35/17 A3003 RMK A01 T03520172  RH  035%=      5-min Rain = 0
KSW1 152029Z 20007KT 35/17 A3003 RMK A01 T03500172  RH  035%=      5-min Rain = 0
KSW1 152030Z 23005KT 35/17 A3003 RMK A01 T03500169  RH  034%=      5-min Rain = 0
KSW1 152031Z 23006KT 35/17 A3003 RMK A01 T03490169  RH  034%=      5-min Rain = 0
KSW1 152032Z 24005KT 35/17 A3003 RMK A01 T03510168  RH  034%=      5-min Rain = 0
KSW1 152033Z 25004KT 35/17 A3003 RMK A01 T03520167  RH  033%=      5-min Rain = 0
KSW1 152034Z 24004KT 35/17 A3003 RMK A01 T03500168  RH  034%=      5-min Rain = 0
KSW1 152035Z 23005KT 35/17 A3003 RMK A01 T03490168  RH  034%=      5-min Rain = 0
KSW1 152036Z 25005KT 35/17 A3003 RMK A01 T03490168  RH  034%=      5-min Rain = 0
KSW1 152037Z 27004KT 35/17 A3003 RMK A01 T03500170  RH  034%=      5-min Rain = 0
KSW1 152038Z 28001KT 35/17 A3003 RMK A01 T03500171  RH  035%=      5-min Rain = 0
KSW1 152039Z 19001KT 35/17 A3003 RMK A01 T03510171  RH  034%=      5-min Rain = 0
KSW1 152040Z 15001KT 35/17 A3003 RMK A01 T03520170  RH  034%=      5-min Rain = 0
KSW1 152041Z 15004KT 36/17 A3002 RMK A01 T03550172  RH  034%=      5-min Rain = 0
KSW1 152042Z 15009KT 36/17 A3002 RMK A01 T03560173  RH  034%=      5-min Rain = 0
KSW1 152043Z 15010KT 36/17 A3002 RMK A01 T03580173  RH  034%=      5-min Rain = 0
KSW1 152044Z 16011KT 36/17 A3002 RMK A01 T03590170  RH  033%=      5-min Rain = 0
KSW1 152045Z 14009KT 36/17 A3002 RMK A01 T03580172  RH  033%=      5-min Rain = 0
KSW1 152046Z 12009KT 36/17 A3002 RMK A01 T03590172  RH  033%=      5-min Rain = 0
KSW1 152047Z 10006KT 36/17 A3002 RMK A01 T03600172  RH  033%=      5-min Rain = 0
KSW1 152048Z 10005KT 36/17 A3002 RMK A01 T03570171  RH  033%=      5-min Rain = 0
KSW1 152049Z 14008KT 36/17 A3002 RMK A01 T03550172  RH  034%=      5-min Rain = 0
KSW1 152050Z 13007G12KT 36/17 A3002 RMK A01 T03550172  RH  034%=      5-min Rain = 0
KSW1 152051Z 13010KT 35/17 A3002 RMK A01 T03540172  RH  034%=      5-min Rain = 0
KSW1 152052Z 14008KT 36/17 A3002 RMK A01 T03570172  RH  034%=      5-min Rain = 0
KSW1 152053Z 15008KT 36/17 A3002 RMK A01 T03590172  RH  033%=      5-min Rain = 0
KSW1 152054Z 16008KT 36/17 A3002 RMK A01 T03610171  RH  033%=      5-min Rain = 0
KSW1 152055Z 15007KT 36/17 A3002 RMK A01 T03610170  RH  032%=      5-min Rain = 0
KSW1 152056Z 16007KT 36/17 A3002 RMK A01 T03630170  RH  032%=      5-min Rain = 0
KSW1 152057Z 15009KT 37/17 A3002 RMK A01 T03650168  RH  031%=      5-min Rain = 0
KSW1 152058Z 17008KT 36/17 A3002 RMK A01 T03640165  RH  031%=      5-min Rain = 0
KSW1 152059Z 16008KT 36/16 A3002 RMK A01 T03610164  RH  031%=      5-min Rain = 0
KSW1 152100Z 18008KT 36/16 A3002 RMK A01 T03580164  RH  032%=      5-min Rain = 0
KSW1 152101Z 17006KT 35/16 A3002 RMK A01 T03530161  RH  032%=      5-min Rain = 0
KSW1 152102Z 22002KT 35/16 A3002 RMK A01 T03490158  RH  032%=      5-min Rain = 0
KSW1 152103Z 29003KT 35/16 A3002 RMK A01 T03470161  RH  033%=      5-min Rain = 0
KSW1 152104Z 18004KT 35/16 A3001 RMK A01 T03470162  RH  033%=      5-min Rain = 0
KSW1 152105Z 16005KT 35/16 A3001 RMK A01 T03520161  RH  032%=      5-min Rain = 0
KSW1 152106Z 18004KT 36/16 A3001 RMK A01 T03550162  RH  032%=      5-min Rain = 0
KSW1 152107Z 18002KT 36/16 A3001 RMK A01 T03550164  RH  032%=      5-min Rain = 0
KSW1 152108Z 29001KT 35/17 A3001 RMK A01 T03540166  RH  033%=      5-min Rain = 0
KSW1 152109Z 35003KT 36/16 A3001 RMK A01 T03580164  RH  032%=      5-min Rain = 0
KSW1 152110Z 21002KT 36/16 A3001 RMK A01 T03600164  RH  031%=      5-min Rain = 0
KSW1 152111Z 15005KT 36/17 A3001 RMK A01 T03630165  RH  031%=      5-min Rain = 0
KSW1 152112Z 17005KT 37/17 A3001 RMK A01 T03650166  RH  031%=      5-min Rain = 0
KSW1 152113Z 17002KT 36/16 A3001 RMK A01 T03610164  RH  031%=      5-min Rain = 0
KSW1 152114Z 21001KT 36/16 A3001 RMK A01 T03580164  RH  032%=      5-min Rain = 0
KSW1 152115Z 18004G10KT 36/16 A3001 RMK A01 T03590164  RH  032%=      5-min Rain = 0
KSW1 152116Z 16007KT 36/16 A3001 RMK A01 T03590163  RH  031%=      5-min Rain = 0
KSW1 152117Z 15006KT 35/16 A3001 RMK A01 T03540162  RH  032%=      5-min Rain = 0
KSW1 152118Z 15004KT 35/16 A3002 RMK A01 T03510161  RH  032%=      5-min Rain = 0
KSW1 152119Z 14002KT 35/16 A3001 RMK A01 T03490160  RH  032%=      5-min Rain = 0
KSW1 152120Z 14002KT 35/16 A3001 RMK A01 T03480160  RH  033%=      5-min Rain = 0
KSW1 152121Z 13002KT 35/16 A3001 RMK A01 T03480161  RH  033%=      5-min Rain = 0
KSW1 152122Z 12002KT 35/16 A3001 RMK A01 T03480162  RH  033%=      5-min Rain = 0
KSW1 152123Z 16002KT 35/16 A3002 RMK A01 T03470161  RH  033%=      5-min Rain = 0
KSW1 152124Z 21001KT 35/16 A3002 RMK A01 T03470161  RH  033%=      5-min Rain = 0
KSW1 152125Z 25002KT 35/16 A3002 RMK A01 T03470162  RH  033%=      5-min Rain = 0
KSW1 152126Z 23003KT 35/16 A3002 RMK A01 T03480163  RH  033%=      5-min Rain = 0
KSW1 152127Z 22003KT 35/16 A3002 RMK A01 T03520164  RH  033%=      5-min Rain = 0
KSW1 152128Z 24003KT 36/16 A3002 RMK A01 T03550163  RH  032%=      5-min Rain = 0
KSW1 152129Z 22002KT 35/16 A3002 RMK A01 T03540164  RH  032%=      5-min Rain = 0
KSW1 152130Z 23002KT 35/16 A3001 RMK A01 T03530163  RH  032%=      5-min Rain = 0
KSW1 152131Z 19004KT 35/16 A3001 RMK A01 T03520163  RH  033%=      5-min Rain = 0
KSW1 152132Z 19005KT 35/16 A3001 RMK A01 T03530156  RH  031%=      5-min Rain = 0
KSW1 152133Z 18008KT 35/16 A3001 RMK A01 T03530155  RH  031%=      5-min Rain = 0
KSW1 152134Z 18006KT 35/16 A3001 RMK A01 T03510155  RH  031%=      5-min Rain = 0
KSW1 152135Z 16009KT 35/16 A3001 RMK A01 T03500156  RH  031%=      5-min Rain = 0
KSW1 152136Z 16007KT 35/16 A3001 RMK A01 T03490156  RH  032%=      5-min Rain = 0
KSW1 152137Z 18006KT 35/16 A3001 RMK A01 T03490156  RH  032%=      5-min Rain = 0
KSW1 152138Z 17006KT 35/16 A3001 RMK A01 T03480155  RH  032%=      5-min Rain = 0
KSW1 152139Z 16003KT 35/16 A3001 RMK A01 T03470155  RH  032%=      5-min Rain = 0
KSW1 152140Z 16003KT 35/16 A3001 RMK A01 T03470155  RH  032%=      5-min Rain = 0
KSW1 152141Z 16003KT 35/16 A3001 RMK A01 T03470156  RH  032%=      5-min Rain = 0
KSW1 152142Z 14002KT 35/16 A3001 RMK A01 T03470156  RH  032%=      5-min Rain = 0
KSW1 152143Z 13002KT 35/16 A3001 RMK A01 T03480156  RH  032%=      5-min Rain = 0
KSW1 152144Z 18004KT 35/16 A3001 RMK A01 T03490156  RH  032%=      5-min Rain = 0
KSW1 152145Z 17003KT 35/16 A3001 RMK A01 T03490156  RH  032%=      5-min Rain = 0
KSW1 152146Z 16001KT 35/16 A3001 RMK A01 T03470155  RH  032%=      5-min Rain = 0
KSW1 152147Z 14001KT 35/16 A3001 RMK A01 T03470156  RH  032%=      5-min Rain = 0
KSW1 152148Z 15001KT 35/16 A3001 RMK A01 T03470156  RH  032%=      5-min Rain = 0
KSW1 152149Z 16001KT 35/16 A3001 RMK A01 T03480156  RH  032%=      5-min Rain = 0
KSW1 152150Z 21001KT 35/16 A3001 RMK A01 T03490156  RH  032%=      5-min Rain = 0
KSW1 152151Z 23004KT 35/16 A3001 RMK A01 T03520157  RH  031%=      5-min Rain = 0
KSW1 152152Z 24005KT 36/16 A3001 RMK A01 T03560157  RH  031%=      5-min Rain = 0
KSW1 152153Z 26003KT 36/16 A3001 RMK A01 T03580157  RH  030%=      5-min Rain = 0
KSW1 152154Z 25005KT 36/16 A3001 RMK A01 T03610159  RH  030%=      5-min Rain = 0
KSW1 152155Z 24006KT 37/16 A3001 RMK A01 T03660159  RH  029%=      5-min Rain = 0
KSW1 152156Z 23007KT 37/16 A3001 RMK A01 T03660158  RH  029%=      5-min Rain = 0
KSW1 152157Z 24007KT 36/16 A3001 RMK A01 T03640158  RH  029%=      5-min Rain = 0
KSW1 152158Z 27006KT 36/16 A3001 RMK A01 T03630158  RH  030%=      5-min Rain = 0
KSW1 152159Z 26004KT 36/16 A3001 RMK A01 T03610158  RH  030%=      5-min Rain = 0
KSW1 152200Z 27005KT 36/16 A3001 RMK A01 T03640158  RH  030%=      5-min Rain = 0
KSW1 152201Z 27005KT 37/16 A3001 RMK A01 T03650157  RH  029%=      5-min Rain = 0
KSW1 152202Z 24004KT 36/16 A3001 RMK A01 T03640157  RH  029%=      5-min Rain = 0
KSW1 152203Z 26004KT 37/16 A3001 RMK A01 T03660156  RH  029%=      5-min Rain = 0
KSW1 152204Z 26005KT 37/16 A3001 RMK A01 T03650156  RH  029%=      5-min Rain = 0
KSW1 152205Z 25005KT 36/15 A3001 RMK A01 T03640154  RH  029%=      5-min Rain = 0
KSW1 152206Z 23006KT 37/15 A3001 RMK A01 T03650151  RH  028%=      5-min Rain = 0
KSW1 152207Z 25005KT 36/15 A3001 RMK A01 T03630151  RH  028%=      5-min Rain = 0
KSW1 152208Z 25005KT 36/15 A3001 RMK A01 T03600150  RH  029%=      5-min Rain = 0
KSW1 152209Z 22006KT 36/15 A3001 RMK A01 T03600150  RH  029%=      5-min Rain = 0
KSW1 152210Z 22004KT 36/15 A3001 RMK A01 T03620150  RH  028%=      5-min Rain = 0
KSW1 152211Z 20004KT 36/15 A3001 RMK A01 T03620149  RH  028%=      5-min Rain = 0
KSW1 152212Z 18003KT 36/15 A3001 RMK A01 T03600148  RH  028%=      5-min Rain = 0
KSW1 152213Z 16002KT 36/15 A3001 RMK A01 T03590149  RH  029%=      5-min Rain = 0
KSW1 152214Z 19001KT 36/15 A3001 RMK A01 T03580149  RH  029%=      5-min Rain = 0
KSW1 152215Z 21002KT 36/15 A3001 RMK A01 T03580149  RH  029%=      5-min Rain = 0
KSW1 152216Z 21001KT 36/15 A3001 RMK A01 T03590149  RH  029%=      5-min Rain = 0
KSW1 152217Z 22000KT 36/15 A3001 RMK A01 T03620150  RH  028%=      5-min Rain = 0
KSW1 152218Z 22000KT 37/15 A3001 RMK A01 T03650150  RH  028%=      5-min Rain = 0
KSW1 152219Z 18001KT 37/15 A3001 RMK A01 T03700152  RH  027%=      5-min Rain = 0
KSW1 152220Z 18002KT 37/15 A30 RMK A01 T03730153  RH  027%=      5-min Rain = 0
KSW1 152221Z 20002KT 37/15 A30 RMK A01 T03720152  RH  027%=      5-min Rain = 0
KSW1 152222Z 30003KT 37/15 A30 RMK A01 T03700151  RH  027%=      5-min Rain = 0
KSW1 152223Z 30004KT 37/15 A30 RMK A01 T03700151  RH  027%=      5-min Rain = 0
KSW1 152224Z 29004KT 37/15 A30 RMK A01 T03680151  RH  027%=      5-min Rain = 0
KSW1 152225Z 34002KT 37/15 A30 RMK A01 T03670151  RH  028%=      5-min Rain = 0
KSW1 152226Z 36002KT 37/15 A30 RMK A01 T03650151  RH  028%=      5-min Rain = 0
KSW1 152227Z 30001KT 36/15 A30 RMK A01 T03630150  RH  028%=      5-min Rain = 0
KSW1 152228Z 27001KT 36/15 A30 RMK A01 T03630151  RH  028%=      5-min Rain = 0
KSW1 152229Z 11001KT 36/15 A30 RMK A01 T03640151  RH  028%=      5-min Rain = 0
KSW1 152230Z 12001KT 37/15 A30 RMK A01 T03670153  RH  028%=      5-min Rain = 0
KSW1 152231Z 12004KT 37/15 A30 RMK A01 T03660152  RH  028%=      5-min Rain = 0
KSW1 152232Z 13004KT 37/15 A30 RMK A01 T03650152  RH  028%=      5-min Rain = 0
KSW1 152233Z 12006KT 36/15 A30 RMK A01 T03640152  RH  028%=      5-min Rain = 0
KSW1 152234Z 12005KT 36/15 A30 RMK A01 T03620152  RH  029%=      5-min Rain = 0
KSW1 152235Z 11008KT 36/15 A30 RMK A01 T03630152  RH  029%=      5-min Rain = 0
KSW1 152236Z 11006KT 36/15 A30 RMK A01 T03630151  RH  028%=      5-min Rain = 0
KSW1 152237Z 11007KT 36/15 A30 RMK A01 T03620151  RH  029%=      5-min Rain = 0
KSW1 152238Z 09004KT 36/15 A30 RMK A01 T03600151  RH  029%=      5-min Rain = 0
KSW1 152239Z 10005KT 36/15 A30 RMK A01 T03590151  RH  029%=      5-min Rain = 0
KSW1 152240Z 09009KT 36/16 A30 RMK A01 T03590158  RH  030%=      5-min Rain = 0
KSW1 152241Z 10010KT 36/16 A30 RMK A01 T03610162  RH  031%=      5-min Rain = 0
KSW1 152242Z 10008KT 36/16 A30 RMK A01 T03630164  RH  031%=      5-min Rain = 0
KSW1 152243Z 11010KT 37/17 A30 RMK A01 T03650167  RH  031%=      5-min Rain = 0
KSW1 152244Z 09012KT 37/17 A30 RMK A01 T03650166  RH  031%=      5-min Rain = 0
KSW1 152245Z 10011KT 36/16 A30 RMK A01 T03640164  RH  031%=      5-min Rain = 0
KSW1 152246Z 11010KT 36/16 A30 RMK A01 T03620164  RH  031%=      5-min Rain = 0
KSW1 152247Z 11012KT 36/16 A30 RMK A01 T03640160  RH  030%=      5-min Rain = 0
KSW1 152248Z 10011KT 36/16 A30 RMK A01 T03620160  RH  030%=      5-min Rain = 0
KSW1 152249Z 10013KT 36/16 A30 RMK A01 T03620161  RH  030%=      5-min Rain = 0
KSW1 152250Z 10012KT 36/16 A30 RMK A01 T03630161  RH  030%=      5-min Rain = 0
KSW1 152251Z 09010KT 36/16 A30 RMK A01 T03630161  RH  030%=      5-min Rain = 0
KSW1 152252Z 10010KT 36/16 A30 RMK A01 T03610163  RH  031%=      5-min Rain = 0
KSW1 152253Z 11012KT 36/16 A30 RMK A01 T03610161  RH  031%=      5-min Rain = 0
KSW1 152254Z 10011KT 36/16 A30 RMK A01 T03610162  RH  031%=      5-min Rain = 0
KSW1 152255Z 11010KT 36/16 A2999 RMK A01 T03600164  RH  031%=      5-min Rain = 0
KSW1 152256Z 10012KT 36/17 A2999 RMK A01 T03600165  RH  032%=      5-min Rain = 0
KSW1 152257Z 10012KT 36/17 A2999 RMK A01 T03600165  RH  032%=      5-min Rain = 0
KSW1 152258Z 09010KT 36/17 A2999 RMK A01 T03590165  RH  032%=      5-min Rain = 0
KSW1 152259Z 10011KT 36/17 A2999 RMK A01 T03590165  RH  032%=      5-min Rain = 0
KSW1 152300Z 10011KT 36/16 A2999 RMK A01 T03590164  RH  031%=      5-min Rain = 0
KSW1 152301Z 10013KT 36/16 A2999 RMK A01 T03590163  RH  031%=      5-min Rain = 0
KSW1 152302Z 11009KT 36/16 A2999 RMK A01 T03580163  RH  031%=      5-min Rain = 0
KSW1 152303Z 12008KT 36/16 A2999 RMK A01 T03560164  RH  032%=      5-min Rain = 0
KSW1 152304Z 11008G13KT 36/17 A2999 RMK A01 T03570165  RH  032%=      5-min Rain = 0
KSW1 152305Z 11011KT 36/16 A2999 RMK A01 T03590164  RH  031%=      5-min Rain = 0
KSW1 152306Z 11012KT 36/16 A2999 RMK A01 T03580164  RH  032%=      5-min Rain = 0
KSW1 152307Z 11013KT 36/16 A2999 RMK A01 T03570164  RH  032%=      5-min Rain = 0
KSW1 152308Z 10010KT 36/16 A2999 RMK A01 T03560163  RH  032%=      5-min Rain = 0
KSW1 152309Z 09011KT 36/16 A2999 RMK A01 T03560163  RH  032%=      5-min Rain = 0
KSW1 152310Z 10011KT 36/16 A2999 RMK A01 T03560162  RH  032%=      5-min Rain = 0
KSW1 152311Z 11010KT 36/16 A2999 RMK A01 T03550162  RH  032%=      5-min Rain = 0
KSW1 152312Z 10012KT 36/16 A2999 RMK A01 T03550162  RH  032%=      5-min Rain = 0
KSW1 152313Z 10012KT 35/16 A2999 RMK A01 T03540163  RH  032%=      5-min Rain = 0
KSW1 152314Z 11010KT 35/16 A2999 RMK A01 T03530162  RH  032%=      5-min Rain = 0
KSW1 152315Z 09010KT 35/16 A2999 RMK A01 T03510162  RH  033%=      5-min Rain = 0
KSW1 152316Z 09009KT 35/16 A2999 RMK A01 T03500162  RH  033%=      5-min Rain = 0
KSW1 152317Z 09010KT 35/16 A2999 RMK A01 T03500162  RH  033%=      5-min Rain = 0
KSW1 152318Z 10009KT 35/16 A2999 RMK A01 T03510162  RH  032%=      5-min Rain = 0
KSW1 152319Z 09010KT 35/16 A2999 RMK A01 T03520162  RH  032%=      5-min Rain = 0
KSW1 152320Z 10010KT 35/16 A2999 RMK A01 T03520161  RH  032%=      5-min Rain = 0
KSW1 152321Z 11009KT 35/16 A2999 RMK A01 T03510161  RH  032%=      5-min Rain = 0
KSW1 152322Z 09009KT 35/16 A2999 RMK A01 T03510160  RH  032%=      5-min Rain = 0
KSW1 152323Z 09008KT 35/16 A2999 RMK A01 T03510161  RH  032%=      5-min Rain = 0
KSW1 152324Z 10009KT 35/16 A2999 RMK A01 T03500161  RH  032%=      5-min Rain = 0
KSW1 152325Z 11007KT 35/16 A2999 RMK A01 T03500162  RH  033%=      5-min Rain = 0
KSW1 152326Z 10008KT 35/16 A2999 RMK A01 T03500162  RH  033%=      5-min Rain = 0
KSW1 152327Z 11008KT 35/16 A2999 RMK A01 T03500160  RH  032%=      5-min Rain = 0
KSW1 152328Z 12007KT 35/16 A2999 RMK A01 T03500160  RH  032%=      5-min Rain = 0
KSW1 152329Z 11009KT 35/16 A2999 RMK A01 T03500158  RH  032%=      5-min Rain = 0
KSW1 152330Z 12008KT 35/16 A2999 RMK A01 T03500158  RH  032%=      5-min Rain = 0
KSW1 152331Z 13006KT 35/16 A2999 RMK A01 T03490159  RH  032%=      5-min Rain = 0
KSW1 152332Z 12006KT 35/16 A2998 RMK A01 T03490159  RH  032%=      5-min Rain = 0
KSW1 152333Z 12006KT 35/16 A2998 RMK A01 T03490160  RH  032%=      5-min Rain = 0
KSW1 152334Z 12006KT 35/16 A2998 RMK A01 T03490160  RH  032%=      5-min Rain = 0
KSW1 152335Z 13007KT 35/16 A2998 RMK A01 T03490160  RH  032%=      5-min Rain = 0
KSW1 152336Z 13009KT 35/16 A2998 RMK A01 T03490159  RH  032%=      5-min Rain = 0
KSW1 152337Z 13007KT 35/16 A2998 RMK A01 T03480158  RH  032%=      5-min Rain = 0
KSW1 152338Z 13007KT 35/16 A2998 RMK A01 T03470157  RH  032%=      5-min Rain = 0
KSW1 152339Z 12008KT 35/16 A2998 RMK A01 T03470157  RH  032%=      5-min Rain = 0
KSW1 152340Z 12007KT 35/16 A2999 RMK A01 T03470155  RH  032%=      5-min Rain = 0
KSW1 152341Z 12007KT 35/16 A2999 RMK A01 T03470156  RH  032%=      5-min Rain = 0
KSW1 152342Z 12007KT 35/16 A2999 RMK A01 T03470157  RH  032%=      5-min Rain = 0
KSW1 152343Z 13006KT 35/16 A2999 RMK A01 T03470158  RH  032%=      5-min Rain = 0
KSW1 152344Z 13007KT 35/16 A2999 RMK A01 T03480158  RH  032%=      5-min Rain = 0
KSW1 152345Z 12008KT 35/16 A2999 RMK A01 T03480158  RH  032%=      5-min Rain = 0
KSW1 152346Z 11008KT 35/16 A2999 RMK A01 T03470158  RH  032%=      5-min Rain = 0
KSW1 152347Z 11006KT 35/16 A2999 RMK A01 T03470159  RH  033%=      5-min Rain = 0
KSW1 152348Z 12007KT 35/16 A2999 RMK A01 T03480160  RH  033%=      5-min Rain = 0
KSW1 152349Z 12008KT 35/16 A2999 RMK A01 T03480161  RH  033%=      5-min Rain = 0
KSW1 152350Z 11007KT 35/16 A2998 RMK A01 T03480161  RH  033%=      5-min Rain = 0
KSW1 152351Z 12008KT 35/16 A2999 RMK A01 T03480161  RH  033%=      5-min Rain = 0
KSW1 152352Z 12007KT 35/16 A2999 RMK A01 T03480161  RH  033%=      5-min Rain = 0
KSW1 152353Z 11008KT 35/16 A2998 RMK A01 T03480161  RH  033%=      5-min Rain = 0
KSW1 152354Z 12008KT 35/16 A2998 RMK A01 T03480160  RH  033%=      5-min Rain = 0
KSW1 152355Z 12006KT 35/16 A2998 RMK A01 T03490160  RH  033%=      5-min Rain = 0
KSW1 152356Z 12007KT 35/16 A2998 RMK A01 T03500160  RH  032%=      5-min Rain = 0
KSW1 152357Z 13007KT 35/16 A2999 RMK A01 T03510160  RH  032%=      5-min Rain = 0
KSW1 152358Z 12007KT 35/16 A2999 RMK A01 T03520159  RH  032%=      5-min Rain = 0
KSW1 152359Z 11009KT 35/16 A2999 RMK A01 T03520158  RH  032%=      5-min Rain = 0
KSW1 160000Z 13007KT 35/16 A2999 RMK A01 T03520159  RH  032%=      5-min Rain = 0
KSW1 160001Z 12006KT 35/16 A2999 RMK A01 T03530160  RH  032%=      5-min Rain = 0
KSW1 160002Z 12008KT 35/16 A2999 RMK A01 T03540158  RH  031%=      5-min Rain = 0
KSW1 160003Z 12007KT 35/16 A2999 RMK A01 T03530158  RH  031%=      5-min Rain = 0
KSW1 160004Z 11007KT 35/16 A2999 RMK A01 T03520158  RH  031%=      5-min Rain = 0
KSW1 160005Z 10006KT 35/16 A2999 RMK A01 T03510157  RH  032%=      5-min Rain = 0
KSW1 160006Z 11007KT 35/16 A2999 RMK A01 T03510158  RH  032%=      5-min Rain = 0
KSW1 160007Z 13006KT 35/16 A2999 RMK A01 T03510158  RH  032%=      5-min Rain = 0
KSW1 160008Z 14006KT 35/16 A2999 RMK A01 T03510159  RH  032%=      5-min Rain = 0
KSW1 160009Z 14008KT 35/16 A2999 RMK A01 T03500158  RH  032%=      5-min Rain = 0
KSW1 160010Z 14008KT 35/16 A2999 RMK A01 T03490157  RH  032%=      5-min Rain = 0
KSW1 160011Z 14009KT 35/16 A2998 RMK A01 T03490158  RH  032%=      5-min Rain = 0
KSW1 160012Z 14010KT 35/16 A2998 RMK A01 T03480158  RH  032%=      5-min Rain = 0
KSW1 160013Z 13010KT 35/16 A2998 RMK A01 T03480157  RH  032%=      5-min Rain = 0
KSW1 160014Z 12009KT 35/16 A2998 RMK A01 T03470156  RH  032%=      5-min Rain = 0
KSW1 160015Z 13009KT 35/16 A2998 RMK A01 T03460156  RH  032%=      5-min Rain = 0
KSW1 160016Z 13008KT 35/16 A2998 RMK A01 T03460156  RH  032%=      5-min Rain = 0
KSW1 160017Z 13009KT 35/16 A2998 RMK A01 T03470156  RH  032%=      5-min Rain = 0
KSW1 160018Z 13007KT 35/16 A2998 RMK A01 T03470156  RH  032%=      5-min Rain = 0
KSW1 160019Z 13008KT 35/16 A2998 RMK A01 T03470157  RH  032%=      5-min Rain = 0
KSW1 160020Z 13007KT 35/16 A2998 RMK A01 T03470157  RH  032%=      5-min Rain = 0
KSW1 160021Z 13007KT 35/16 A2998 RMK A01 T03480157  RH  032%=      5-min Rain = 0
KSW1 160022Z 13007KT 35/16 A2998 RMK A01 T03480157  RH  032%=      5-min Rain = 0
KSW1 160023Z 14006KT 35/16 A2998 RMK A01 T03490157  RH  032%=      5-min Rain = 0
KSW1 160024Z 13009KT 35/16 A2998 RMK A01 T03490157  RH  032%=      5-min Rain = 0
KSW1 160025Z 14009KT 35/16 A2998 RMK A01 T03500156  RH  032%=      5-min Rain = 0
KSW1 160026Z 13009KT 35/16 A2998 RMK A01 T03490155  RH  032%=      5-min Rain = 0
KSW1 160027Z 14009KT 35/16 A2998 RMK A01 T03500155  RH  031%=      5-min Rain = 0
KSW1 160028Z 14009KT 35/16 A2998 RMK A01 T03500156  RH  032%=      5-min Rain = 0
KSW1 160029Z 14008KT 35/16 A2998 RMK A01 T03490156  RH  032%=      5-min Rain = 0
KSW1 160030Z 14009KT 35/16 A2998 RMK A01 T03490157  RH  032%=      5-min Rain = 0
KSW1 160031Z 14009KT 35/16 A2998 RMK A01 T03490156  RH  032%=      5-min Rain = 0
KSW1 160032Z 14009KT 35/16 A2998 RMK A01 T03500157  RH  032%=      5-min Rain = 0
KSW1 160033Z 14010KT 35/16 A2998 RMK A01 T03500157  RH  032%=      5-min Rain = 0
KSW1 160034Z 13009KT 35/16 A2998 RMK A01 T03490157  RH  032%=      5-min Rain = 0
KSW1 160035Z 14009KT 35/16 A2998 RMK A01 T03490158  RH  032%=      5-min Rain = 0
KSW1 160036Z 13011KT 35/16 A2998 RMK A01 T03480158  RH  032%=      5-min Rain = 0
KSW1 160037Z 14009KT 35/16 A2998 RMK A01 T03470157  RH  032%=      5-min Rain = 0
KSW1 160038Z 13010KT 35/16 A2998 RMK A01 T03460158  RH  033%=      5-min Rain = 0
KSW1 160039Z 14009KT 35/16 A2998 RMK A01 T03450158  RH  033%=      5-min Rain = 0
KSW1 160040Z 13009KT 35/16 A2998 RMK A01 T03450159  RH  033%=      5-min Rain = 0
KSW1 160041Z 13009KT 34/16 A2998 RMK A01 T03440159  RH  033%=      5-min Rain = 0
KSW1 160042Z 13009KT 34/16 A2998 RMK A01 T03440160  RH  033%=      5-min Rain = 0
KSW1 160043Z 13010KT 34/16 A2998 RMK A01 T03430161  RH  034%=      5-min Rain = 0
KSW1 160044Z 13012KT 34/16 A2998 RMK A01 T03430162  RH  034%=      5-min Rain = 0
KSW1 160045Z 12012KT 34/16 A2998 RMK A01 T03420163  RH  034%=      5-min Rain = 0
KSW1 160046Z 11011KT 34/16 A2998 RMK A01 T03420163  RH  034%=      5-min Rain = 0
KSW1 160047Z 12010KT 34/16 A2998 RMK A01 T03420164  RH  035%=      5-min Rain = 0
KSW1 160048Z 12008KT 34/16 A2998 RMK A01 T03420164  RH  035%=      5-min Rain = 0
KSW1 160049Z 12009KT 34/16 A2998 RMK A01 T03410163  RH  035%=      5-min Rain = 0
KSW1 160050Z 12010KT 34/16 A2998 RMK A01 T03420163  RH  035%=      5-min Rain = 0
KSW1 160051Z 12010KT 34/16 A2998 RMK A01 T03410163  RH  034%=      5-min Rain = 0
KSW1 160052Z 12009KT 34/16 A2998 RMK A01 T03410163  RH  035%=      5-min Rain = 0
KSW1 160053Z 11010KT 34/16 A2998 RMK A01 T03410163  RH  035%=      5-min Rain = 0
KSW1 160054Z 12011KT 34/16 A2998 RMK A01 T03410162  RH  034%=      5-min Rain = 0
KSW1 160055Z 12011KT 34/16 A2998 RMK A01 T03400161  RH  034%=      5-min Rain = 0
KSW1 160056Z 12010KT 34/16 A2998 RMK A01 T03400162  RH  035%=      5-min Rain = 0
KSW1 160057Z 12010KT 34/16 A2998 RMK A01 T03400162  RH  035%=      5-min Rain = 0
KSW1 160058Z 11008KT 34/16 A2998 RMK A01 T03390163  RH  035%=      5-min Rain = 0
KSW1 160059Z 11008KT 34/16 A2998 RMK A01 T03390163  RH  035%=      5-min Rain = 0
KSW1 160100Z 12009KT 34/16 A2998 RMK A01 T03390163  RH  035%=      5-min Rain = 0
KSW1 160101Z 11009KT 34/16 A2998 RMK A01 T03380163  RH  035%=      5-min Rain = 0
KSW1 160102Z 11008KT 34/16 A2998 RMK A01 T03380163  RH  035%=      5-min Rain = 0
KSW1 160103Z 12008KT 34/16 A2998 RMK A01 T03380163  RH  035%=      5-min Rain = 0
KSW1 160104Z 12009KT 34/16 A2998 RMK A01 T03370164  RH  035%=      5-min Rain = 0
KSW1 160105Z 12007KT 34/16 A2998 RMK A01 T03370164  RH  036%=      5-min Rain = 0
KSW1 160106Z 12008KT 34/16 A2998 RMK A01 T03360164  RH  036%=      5-min Rain = 0
KSW1 160107Z 12008KT 34/16 A2998 RMK A01 T03360163  RH  036%=      5-min Rain = 0
KSW1 160108Z 12007KT 34/16 A2998 RMK A01 T03360164  RH  036%=      5-min Rain = 0
KSW1 160109Z 12007KT 34/16 A2998 RMK A01 T03350164  RH  036%=      5-min Rain = 0
KSW1 160110Z 12008KT 34/16 A2998 RMK A01 T03350163  RH  036%=      5-min Rain = 0
KSW1 160111Z 11009KT 34/16 A2998 RMK A01 T03350161  RH  035%=      5-min Rain = 0
KSW1 160112Z 11008KT 34/16 A2998 RMK A01 T03350161  RH  035%=      5-min Rain = 0
KSW1 160113Z 11007KT 34/16 A2998 RMK A01 T03350162  RH  035%=      5-min Rain = 0
KSW1 160114Z 11009KT 33/16 A2998 RMK A01 T03340162  RH  036%=      5-min Rain = 0
KSW1 160115Z 11008KT 33/16 A2998 RMK A01 T03340161  RH  036%=      5-min Rain = 0
KSW1 160116Z 11007KT 33/16 A2998 RMK A01 T03330161  RH  036%=      5-min Rain = 0
KSW1 160117Z 11007KT 33/16 A2998 RMK A01 T03330161  RH  036%=      5-min Rain = 0
KSW1 160118Z 11007KT 33/16 A2998 RMK A01 T03320161  RH  036%=      5-min Rain = 0
KSW1 160119Z 11008KT 33/16 A2998 RMK A01 T03320160  RH  036%=      5-min Rain = 0
KSW1 160120Z 11007KT 33/16 A2998 RMK A01 T03310160  RH  036%=      5-min Rain = 0
KSW1 160121Z 11008KT 33/16 A2998 RMK A01 T03310160  RH  036%=      5-min Rain = 0
KSW1 160122Z 12007KT 33/16 A2998 RMK A01 T03300160  RH  036%=      5-min Rain = 0
KSW1 160123Z 12006KT 33/16 A2998 RMK A01 T03300160  RH  036%=      5-min Rain = 0
KSW1 160124Z 12006KT 33/16 A2998 RMK A01 T03300161  RH  036%=      5-min Rain = 0
KSW1 160125Z 11006KT 33/16 A2998 RMK A01 T03290160  RH  036%=      5-min Rain = 0
KSW1 160126Z 12006KT 33/16 A2998 RMK A01 T03280160  RH  036%=      5-min Rain = 0
KSW1 160127Z 11007KT 33/16 A2998 RMK A01 T03280160  RH  037%=      5-min Rain = 0
KSW1 160128Z 12006KT 33/16 A2998 RMK A01 T03270160  RH  037%=      5-min Rain = 0
KSW1 160129Z 13006KT 33/16 A2998 RMK A01 T03270160  RH  037%=      5-min Rain = 0
KSW1 160130Z 13008KT 33/16 A2998 RMK A01 T03270160  RH  037%=      5-min Rain = 0
KSW1 160131Z 12008KT 33/16 A2998 RMK A01 T03270160  RH  037%=      5-min Rain = 0
KSW1 160132Z 12009KT 33/16 A2998 RMK A01 T03270160  RH  037%=      5-min Rain = 0
KSW1 160133Z 13007KT 33/16 A2998 RMK A01 T03260160  RH  037%=      5-min Rain = 0
KSW1 160134Z 12008KT 33/16 A2998 RMK A01 T03260160  RH  037%=      5-min Rain = 0
KSW1 160135Z 13008KT 33/16 A2998 RMK A01 T03250160  RH  037%=      5-min Rain = 0
KSW1 160136Z 12007KT 33/16 A2998 RMK A01 T03250160  RH  037%=      5-min Rain = 0
KSW1 160137Z 12007KT 32/16 A2998 RMK A01 T03240160  RH  037%=      5-min Rain = 0
KSW1 160138Z 13007KT 32/16 A2998 RMK A01 T03240160  RH  037%=      5-min Rain = 0
KSW1 160139Z 13007KT 32/16 A2998 RMK A01 T03240160  RH  037%=      5-min Rain = 0
KSW1 160140Z 13007KT 32/16 A2998 RMK A01 T03230160  RH  038%=      5-min Rain = 0
KSW1 160141Z 13007KT 32/16 A2998 RMK A01 T03220160  RH  038%=      5-min Rain = 0
KSW1 160142Z 12006KT 32/16 A2998 RMK A01 T03220160  RH  038%=      5-min Rain = 0
KSW1 160143Z 13006KT 32/16 A2998 RMK A01 T03220160  RH  038%=      5-min Rain = 0
KSW1 160144Z 12006KT 32/16 A2998 RMK A01 T03210160  RH  038%=      5-min Rain = 0
KSW1 160145Z 12006KT 32/16 A2999 RMK A01 T03200160  RH  038%=      5-min Rain = 0
KSW1 160146Z 12006KT 32/16 A2999 RMK A01 T03190160  RH  038%=      5-min Rain = 0
KSW1 160147Z 12005KT 32/16 A2999 RMK A01 T03190160  RH  038%=      5-min Rain = 0
KSW1 160148Z 12005KT 32/16 A2999 RMK A01 T03180160  RH  038%=      5-min Rain = 0
KSW1 160149Z 12005KT 32/16 A2999 RMK A01 T03170159  RH  039%=      5-min Rain = 0
KSW1 160150Z 12005KT 32/16 A2999 RMK A01 T03170159  RH  039%=      5-min Rain = 0
KSW1 160151Z 12005KT 32/16 A2999 RMK A01 T03160160  RH  039%=      5-min Rain = 0
KSW1 160152Z 12006KT 32/16 A2999 RMK A01 T03150159  RH  039%=      5-min Rain = 0
KSW1 160153Z 12006KT 32/16 A2999 RMK A01 T03150160  RH  039%=      5-min Rain = 0
KSW1 160154Z 12006KT 31/16 A2999 RMK A01 T03140160  RH  039%=      5-min Rain = 0
KSW1 160155Z 13006KT 31/16 A2999 RMK A01 T03130159  RH  040%=      5-min Rain = 0
KSW1 160156Z 12006KT 31/16 A2999 RMK A01 T03130159  RH  040%=      5-min Rain = 0
KSW1 160157Z 12006KT 31/16 A2999 RMK A01 T03130160  RH  040%=      5-min Rain = 0
KSW1 160158Z 12006KT 31/16 A2999 RMK A01 T03120159  RH  040%=      5-min Rain = 0
KSW1 160159Z 12006KT 31/16 A2999 RMK A01 T03110159  RH  040%=      5-min Rain = 0
KSW1 160200Z 13006KT 31/16 A2999 RMK A01 T03110160  RH  040%=      5-min Rain = 0
KSW1 160201Z 13006KT 31/16 A2999 RMK A01 T03100160  RH  040%=      5-min Rain = 0
KSW1 160202Z 13006KT 31/16 A2999 RMK A01 T03090159  RH  040%=      5-min Rain = 0
KSW1 160203Z 13007KT 31/16 A2999 RMK A01 T03100160  RH  040%=      5-min Rain = 0
KSW1 160204Z 12006KT 31/16 A2999 RMK A01 T03090160  RH  040%=      5-min Rain = 0
KSW1 160205Z 12006KT 31/16 A2999 RMK A01 T03090160  RH  041%=      5-min Rain = 0
KSW1 160206Z 12006KT 31/16 A2999 RMK A01 T03080159  RH  041%=      5-min Rain = 0
KSW1 160207Z 12006KT 31/16 A2999 RMK A01 T03070160  RH  041%=      5-min Rain = 0
KSW1 160208Z 12006KT 31/16 A2999 RMK A01 T03070159  RH  041%=      5-min Rain = 0
KSW1 160209Z 12006KT 31/16 A2999 RMK A01 T03070159  RH  041%=      5-min Rain = 0
KSW1 160210Z 12006KT 31/16 A2999 RMK A01 T03060159  RH  041%=      5-min Rain = 0
KSW1 160211Z 12007KT 31/16 A30 RMK A01 T03060159  RH  041%=      5-min Rain = 0
KSW1 160212Z 12006KT 31/16 A30 RMK A01 T03050159  RH  041%=      5-min Rain = 0
KSW1 160213Z 12006KT 31/16 A30 RMK A01 T03050159  RH  041%=      5-min Rain = 0
KSW1 160214Z 12006KT 30/16 A30 RMK A01 T03040160  RH  042%=      5-min Rain = 0
KSW1 160215Z 12007KT 30/16 A30 RMK A01 T03040159  RH  042%=      5-min Rain = 0
KSW1 160216Z 12006KT 30/16 A30 RMK A01 T03030159  RH  042%=      5-min Rain = 0
KSW1 160217Z 12007KT 30/16 A30 RMK A01 T03020160  RH  042%=      5-min Rain = 0
KSW1 160218Z 12007KT 30/16 A30 RMK A01 T03020159  RH  042%=      5-min Rain = 0
KSW1 160219Z 12007KT 30/16 A30 RMK A01 T03010159  RH  042%=      5-min Rain = 0
KSW1 160220Z 12008KT 30/16 A30 RMK A01 T03010159  RH  042%=      5-min Rain = 0
KSW1 160221Z 12008KT 30/16 A30 RMK A01 T03000159  RH  043%=      5-min Rain = 0
KSW1 160222Z 13008KT 30/16 A30 RMK A01 T03000159  RH  043%=      5-min Rain = 0
KSW1 160223Z 12008KT 30/16 A30 RMK A01 T03000159  RH  043%=      5-min Rain = 0
KSW1 160224Z 13008KT 30/16 A30 RMK A01 T03000159  RH  043%=      5-min Rain = 0
KSW1 160225Z 13008KT 30/16 A30 RMK A01 T03000159  RH  043%=      5-min Rain = 0
KSW1 160226Z 12008KT 30/16 A30 RMK A01 T02990159  RH  043%=      5-min Rain = 0
KSW1 160227Z 12008KT 30/16 A30 RMK A01 T02990159  RH  043%=      5-min Rain = 0
KSW1 160228Z 12008KT 30/16 A30 RMK A01 T02990159  RH  043%=      5-min Rain = 0
KSW1 160229Z 12008KT 30/16 A30 RMK A01 T02990159  RH  043%=      5-min Rain = 0
KSW1 160230Z 12007KT 30/16 A30 RMK A01 T02990159  RH  043%=      5-min Rain = 0
KSW1 160231Z 12008KT 30/16 A30 RMK A01 T02990158  RH  043%=      5-min Rain = 0
KSW1 160232Z 12008KT 30/16 A30 RMK A01 T02990159  RH  043%=      5-min Rain = 0
KSW1 160233Z 13008KT 30/16 A30 RMK A01 T02990159  RH  043%=      5-min Rain = 0
KSW1 160234Z 12008KT 30/16 A30 RMK A01 T02990159  RH  043%=      5-min Rain = 0
KSW1 160235Z 13007KT 30/16 A30 RMK A01 T02990159  RH  043%=      5-min Rain = 0
KSW1 160236Z 13008KT 30/16 A30 RMK A01 T02990159  RH  043%=      5-min Rain = 0
KSW1 160237Z 13008KT 30/16 A30 RMK A01 T02980158  RH  043%=      5-min Rain = 0
KSW1 160238Z 13007KT 30/16 A30 RMK A01 T02970158  RH  043%=      5-min Rain = 0
KSW1 160239Z 13007KT 30/16 A30 RMK A01 T02970158  RH  043%=      5-min Rain = 0
KSW1 160240Z 13008KT 30/16 A30 RMK A01 T02960158  RH  043%=      5-min Rain = 0
KSW1 160241Z 13008KT 30/16 A30 RMK A01 T02960158  RH  043%=      5-min Rain = 0
KSW1 160242Z 13007KT 30/16 A30 RMK A01 T02960158  RH  043%=      5-min Rain = 0
KSW1 160243Z 13007KT 30/16 A30 RMK A01 T02960158  RH  043%=      5-min Rain = 0
KSW1 160244Z 13008KT 30/16 A30 RMK A01 T02960159  RH  043%=      5-min Rain = 0
KSW1 160245Z 14008KT 30/16 A30 RMK A01 T02960158  RH  043%=      5-min Rain = 0
KSW1 160246Z 14008KT 30/16 A30 RMK A01 T02960158  RH  043%=      5-min Rain = 0
KSW1 160247Z 14008KT 30/16 A30 RMK A01 T02960158  RH  043%=      5-min Rain = 0
KSW1 160248Z 14007KT 30/16 A30 RMK A01 T02960158  RH  043%=      5-min Rain = 0
KSW1 160249Z 14007KT 30/16 A30 RMK A01 T02960158  RH  043%=      5-min Rain = 0
KSW1 160250Z 14007KT 30/16 A30 RMK A01 T02960159  RH  043%=      5-min Rain = 0
KSW1 160251Z 14007KT 30/16 A30 RMK A01 T02960158  RH  043%=      5-min Rain = 0
KSW1 160252Z 14008KT 30/16 A30 RMK A01 T02960158  RH  043%=      5-min Rain = 0
KSW1 160253Z 14007KT 30/16 A30 RMK A01 T02960158  RH  043%=      5-min Rain = 0
KSW1 160254Z 14007KT 30/16 A30 RMK A01 T02960158  RH  043%=      5-min Rain = 0
KSW1 160255Z 14007KT 30/16 A30 RMK A01 T02960158  RH  043%=      5-min Rain = 0
KSW1 160256Z 14007KT 30/16 A30 RMK A01 T02960158  RH  043%=      5-min Rain = 0
KSW1 160257Z 14007KT 30/16 A30 RMK A01 T02960158  RH  043%=      5-min Rain = 0
KSW1 160258Z 14007KT 30/16 A30 RMK A01 T02960158  RH  043%=      5-min Rain = 0
KSW1 160259Z 14007KT 30/16 A30 RMK A01 T02960157  RH  043%=      5-min Rain = 0
KSW1 160300Z 13007KT 30/16 A30 RMK A01 T02970157  RH  043%=      5-min Rain = 0
KSW1 160301Z 12007KT 30/16 A30 RMK A01 T02970157  RH  043%=      5-min Rain = 0
KSW1 160302Z 12008KT 30/16 A30 RMK A01 T02960157  RH  043%=      5-min Rain = 0
KSW1 160303Z 13008KT 30/16 A3001 RMK A01 T02950157  RH  043%=      5-min Rain = 0
KSW1 160304Z 13007KT 29/16 A3001 RMK A01 T02940157  RH  043%=      5-min Rain = 0
KSW1 160305Z 13007KT 29/16 A3001 RMK A01 T02940157  RH  043%=      5-min Rain = 0
KSW1 160306Z 13007KT 29/16 A3001 RMK A01 T02940157  RH  043%=      5-min Rain = 0
KSW1 160307Z 13007KT 29/16 A3001 RMK A01 T02940156  RH  043%=      5-min Rain = 0
KSW1 160308Z 13007KT 30/16 A3001 RMK A01 T02950156  RH  043%=      5-min Rain = 0
KSW1 160309Z 13007KT 30/16 A3001 RMK A01 T02950156  RH  043%=      5-min Rain = 0
KSW1 160310Z 13007KT 30/16 A3001 RMK A01 T02950156  RH  043%=      5-min Rain = 0
KSW1 160311Z 12007KT 30/16 A3001 RMK A01 T02950156  RH  043%=      5-min Rain = 0
KSW1 160312Z 13006KT 30/16 A3001 RMK A01 T02950156  RH  043%=      5-min Rain = 0
KSW1 160313Z 12007KT 29/16 A3002 RMK A01 T02940156  RH  043%=      5-min Rain = 0
KSW1 160314Z 12007KT 29/16 A3002 RMK A01 T02940156  RH  043%=      5-min Rain = 0
KSW1 160315Z 12007KT 29/16 A3002 RMK A01 T02930156  RH  043%=      5-min Rain = 0
KSW1 160316Z 12007KT 29/16 A3002 RMK A01 T02930156  RH  043%=      5-min Rain = 0
KSW1 160317Z 12006KT 29/16 A3002 RMK A01 T02920156  RH  044%=      5-min Rain = 0
KSW1 160318Z 12007KT 29/16 A3002 RMK A01 T02920156  RH  044%=      5-min Rain = 0
KSW1 160319Z 12007KT 29/16 A3002 RMK A01 T02910156  RH  044%=      5-min Rain = 0
KSW1 160320Z 12007KT 29/16 A3002 RMK A01 T02910155  RH  044%=      5-min Rain = 0
KSW1 160321Z 13009KT 29/16 A3002 RMK A01 T02910156  RH  044%=      5-min Rain = 0
KSW1 160322Z 13008KT 29/16 A3002 RMK A01 T02920156  RH  044%=      5-min Rain = 0
KSW1 160323Z 13007KT 29/16 A3002 RMK A01 T02930156  RH  043%=      5-min Rain = 0
KSW1 160324Z 13008KT 29/16 A3002 RMK A01 T02940156  RH  043%=      5-min Rain = 0
KSW1 160325Z 12007KT 29/16 A3002 RMK A01 T02930156  RH  043%=      5-min Rain = 0
KSW1 160326Z 13008KT 29/16 A3002 RMK A01 T02940157  RH  043%=      5-min Rain = 0
KSW1 160327Z 13007KT 29/16 A3002 RMK A01 T02930156  RH  044%=      5-min Rain = 0
KSW1 160328Z 13008KT 29/16 A3002 RMK A01 T02930157  RH  044%=      5-min Rain = 0
KSW1 160329Z 13008KT 29/16 A3003 RMK A01 T02930157  RH  044%=      5-min Rain = 0
KSW1 160330Z 13008KT 29/16 A3003 RMK A01 T02930156  RH  044%=      5-min Rain = 0
KSW1 160331Z 13008KT 29/16 A3003 RMK A01 T02930156  RH  044%=      5-min Rain = 0
KSW1 160332Z 13009KT 29/16 A3003 RMK A01 T02930156  RH  044%=      5-min Rain = 0
KSW1 160333Z 13008KT 29/16 A3003 RMK A01 T02930156  RH  043%=      5-min Rain = 0
KSW1 160334Z 13009KT 29/16 A3003 RMK A01 T02940156  RH  043%=      5-min Rain = 0
KSW1 160335Z 13008KT 29/16 A3003 RMK A01 T02940156  RH  043%=      5-min Rain = 0
KSW1 160336Z 13009KT 30/16 A3003 RMK A01 T02950156  RH  043%=      5-min Rain = 0
KSW1 160337Z 13009KT 30/16 A3003 RMK A01 T02950156  RH  043%=      5-min Rain = 0
KSW1 160338Z 13008KT 30/16 A3003 RMK A01 T02960156  RH  043%=      5-min Rain = 0
KSW1 160339Z 13008KT 30/16 A3003 RMK A01 T02960156  RH  043%=      5-min Rain = 0
KSW1 160340Z 13008KT 30/16 A3003 RMK A01 T02960156  RH  043%=      5-min Rain = 0
KSW1 160341Z 13008KT 30/16 A3003 RMK A01 T02960156  RH  043%=      5-min Rain = 0
KSW1 160342Z 13008KT 30/16 A3003 RMK A01 T02950156  RH  043%=      5-min Rain = 0
KSW1 160343Z 13009KT 29/16 A3003 RMK A01 T02940156  RH  043%=      5-min Rain = 0
KSW1 160344Z 13008KT 29/16 A3003 RMK A01 T02940157  RH  043%=      5-min Rain = 0
KSW1 160345Z 13009KT 29/16 A3003 RMK A01 T02940156  RH  043%=      5-min Rain = 0
KSW1 160346Z 13009KT 29/16 A3003 RMK A01 T02940156  RH  043%=      5-min Rain = 0
KSW1 160347Z 13008KT 29/16 A3003 RMK A01 T02940156  RH  043%=      5-min Rain = 0
KSW1 160348Z 13008KT 29/16 A3003 RMK A01 T02940156  RH  043%=      5-min Rain = 0
KSW1 160349Z 13008KT 29/16 A3003 RMK A01 T02940156  RH  043%=      5-min Rain = 0
KSW1 160350Z 13009KT 29/16 A3003 RMK A01 T02930156  RH  043%=      5-min Rain = 0
KSW1 160351Z 13008KT 29/16 A3003 RMK A01 T02930156  RH  043%=      5-min Rain = 0
KSW1 160352Z 13009KT 29/16 A3003 RMK A01 T02930156  RH  043%=      5-min Rain = 0
KSW1 160353Z 13008KT 29/16 A3003 RMK A01 T02930156  RH  043%=      5-min Rain = 0
KSW1 160354Z 13009KT 29/16 A3003 RMK A01 T02930156  RH  043%=      5-min Rain = 0
KSW1 160355Z 13009KT 29/16 A3003 RMK A01 T02930156  RH  043%=      5-min Rain = 0
KSW1 160356Z 13009KT 29/16 A3003 RMK A01 T02930156  RH  043%=      5-min Rain = 0
KSW1 160357Z 13009KT 29/16 A3003 RMK A01 T02930156  RH  043%=      5-min Rain = 0
KSW1 160358Z 13010KT 29/16 A3003 RMK A01 T02930155  RH  043%=      5-min Rain = 0
KSW1 160359Z 13010KT 29/16 A3003 RMK A01 T02930155  RH  043%=      5-min Rain = 0
KSW1 160400Z 13009KT 29/16 A3003 RMK A01 T02930155  RH  043%=      5-min Rain = 0
KSW1 160401Z 13009KT 29/16 A3003 RMK A01 T02930155  RH  043%=      5-min Rain = 0
KSW1 160402Z 13009KT 29/16 A3003 RMK A01 T02930155  RH  043%=      5-min Rain = 0
KSW1 160403Z 13008KT 29/16 A3003 RMK A01 T02920155  RH  043%=      5-min Rain = 0
KSW1 160404Z 13010KT 29/16 A3003 RMK A01 T02920155  RH  043%=      5-min Rain = 0
KSW1 160405Z 13009KT 29/16 A3003 RMK A01 T02920155  RH  043%=      5-min Rain = 0
KSW1 160406Z 13009KT 29/16 A3003 RMK A01 T02920155  RH  043%=      5-min Rain = 0
KSW1 160407Z 13008KT 29/15 A3003 RMK A01 T02920154  RH  043%=      5-min Rain = 0
KSW1 160408Z 13009KT 29/16 A3003 RMK A01 T02920155  RH  043%=      5-min Rain = 0
KSW1 160409Z 13009KT 29/15 A3003 RMK A01 T02920154  RH  043%=      5-min Rain = 0
KSW1 160410Z 13010KT 29/15 A3003 RMK A01 T02920154  RH  043%=      5-min Rain = 0
KSW1 160411Z 13010KT 29/15 A3003 RMK A01 T02920154  RH  043%=      5-min Rain = 0
KSW1 160412Z 13008KT 29/15 A3003 RMK A01 T02910154  RH  043%=      5-min Rain = 0
KSW1 160413Z 13011KT 29/15 A3003 RMK A01 T02920154  RH  043%=      5-min Rain = 0
KSW1 160414Z 13011KT 29/15 A3003 RMK A01 T02920154  RH  043%=      5-min Rain = 0
KSW1 160415Z 13011KT 29/15 A3003 RMK A01 T02920154  RH  043%=      5-min Rain = 0
KSW1 160416Z 13010KT 29/15 A3003 RMK A01 T02920154  RH  043%=      5-min Rain = 0
KSW1 160417Z 13012KT 29/15 A3003 RMK A01 T02930154  RH  043%=      5-min Rain = 0
KSW1 160418Z 13010KT 29/15 A3003 RMK A01 T02930154  RH  043%=      5-min Rain = 0
KSW1 160419Z 13011KT 29/15 A3003 RMK A01 T02930154  RH  043%=      5-min Rain = 0
KSW1 160420Z 13012KT 29/15 A3003 RMK A01 T02930154  RH  043%=      5-min Rain = 0
KSW1 160421Z 13013KT 29/15 A3003 RMK A01 T02930153  RH  043%=      5-min Rain = 0
KSW1 160422Z 13012KT 29/15 A3003 RMK A01 T02930153  RH  043%=      5-min Rain = 0
KSW1 160423Z 13011KT 29/15 A3003 RMK A01 T02930153  RH  043%=      5-min Rain = 0
KSW1 160424Z 13011KT 29/15 A3003 RMK A01 T02930153  RH  043%=      5-min Rain = 0
KSW1 160425Z 13011KT 29/15 A3003 RMK A01 T02930154  RH  043%=      5-min Rain = 0
KSW1 160426Z 13011KT 29/15 A3003 RMK A01 T02930154  RH  043%=      5-min Rain = 0
KSW1 160427Z 13011KT 29/15 A3003 RMK A01 T02930153  RH  043%=      5-min Rain = 0
KSW1 160428Z 13012KT 29/15 A3003 RMK A01 T02930154  RH  043%=      5-min Rain = 0
KSW1 160429Z 13011KT 29/15 A3003 RMK A01 T02930154  RH  043%=      5-min Rain = 0
KSW1 160430Z 13010KT 29/15 A3003 RMK A01 T02930154  RH  043%=      5-min Rain = 0
KSW1 160431Z 13010KT 29/15 A3003 RMK A01 T02930154  RH  043%=      5-min Rain = 0
KSW1 160432Z 13011KT 29/15 A3003 RMK A01 T02920154  RH  043%=      5-min Rain = 0
KSW1 160433Z 13012KT 29/15 A3003 RMK A01 T02920154  RH  043%=      5-min Rain = 0
KSW1 160434Z 13012KT 29/15 A3003 RMK A01 T02920154  RH  043%=      5-min Rain = 0
KSW1 160435Z 13013KT 29/15 A3003 RMK A01 T02920153  RH  043%=      5-min Rain = 0
KSW1 160436Z 12011KT 29/15 A3003 RMK A01 T02930154  RH  043%=      5-min Rain = 0
KSW1 160437Z 13011KT 29/15 A3003 RMK A01 T02920154  RH  043%=      5-min Rain = 0
KSW1 160438Z 13010KT 29/15 A3003 RMK A01 T02920154  RH  043%=      5-min Rain = 0
KSW1 160439Z 13012KT 29/15 A3003 RMK A01 T02920154  RH  043%=      5-min Rain = 0
KSW1 160440Z 13011KT 29/15 A3003 RMK A01 T02910154  RH  043%=      5-min Rain = 0
KSW1 160441Z 13011KT 29/15 A3003 RMK A01 T02920154  RH  043%=      5-min Rain = 0
KSW1 160442Z 13013KT 29/15 A3003 RMK A01 T02920154  RH  043%=      5-min Rain = 0
KSW1 160443Z 13012KT 29/15 A3003 RMK A01 T02910154  RH  043%=      5-min Rain = 0
KSW1 160444Z 13012KT 29/15 A3003 RMK A01 T02920154  RH  043%=      5-min Rain = 0
KSW1 160445Z 13013KT 29/15 A3003 RMK A01 T02920154  RH  043%=      5-min Rain = 0
KSW1 160446Z 13012KT 29/15 A3003 RMK A01 T02920154  RH  043%=      5-min Rain = 0
KSW1 160447Z 13013KT 29/15 A3003 RMK A01 T02910154  RH  043%=      5-min Rain = 0
KSW1 160448Z 13013G18KT 29/16 A3003 RMK A01 T02920155  RH  043%=      5-min Rain = 0
KSW1 160449Z 13012KT 29/16 A3003 RMK A01 T02920155  RH  043%=      5-min Rain = 0
KSW1 160450Z 12013KT 29/16 A3003 RMK A01 T02910155  RH  044%=      5-min Rain = 0
KSW1 160451Z 13013KT 29/16 A3003 RMK A01 T02910155  RH  044%=      5-min Rain = 0
KSW1 160452Z 13013KT 29/16 A3003 RMK A01 T02910155  RH  044%=      5-min Rain = 0
KSW1 160453Z 13012KT 29/16 A3003 RMK A01 T02910155  RH  044%=      5-min Rain = 0
KSW1 160454Z 13012KT 29/16 A3003 RMK A01 T02910155  RH  044%=      5-min Rain = 0
KSW1 160455Z 13012KT 29/16 A3003 RMK A01 T02910155  RH  044%=      5-min Rain = 0
KSW1 160456Z 13012KT 29/16 A3003 RMK A01 T02900156  RH  044%=      5-min Rain = 0
KSW1 160457Z 13012KT 29/16 A3003 RMK A01 T02900156  RH  044%=      5-min Rain = 0
KSW1 160458Z 13011KT 29/16 A3003 RMK A01 T02900156  RH  044%=      5-min Rain = 0
KSW1 160459Z 13012KT 29/16 A3003 RMK A01 T02900156  RH  044%=      5-min Rain = 0

Page generated in 0.0811 seconds.